<?xml version="1.0" encoding="UTF-8" standalone="no" ?>
<gpx xmlns="http://www.topografix.com/GPX/1/1" xmlns:xsi="http://www.w3.org/2001/XMLSchema-instance" xsi:schemaLocation="http://www.topografix.com/GPX/1/1 http://www.topografix.com/GPX/1/1/gpx.xsd" version="1.1" creator="VisuGPX - https://www.visugpx.com">
  <metadata>
    <name>2J traversée Chartreuse - Sappey/Plat Ferrier</name>
    <desc><![CDATA[2iem jour de la traversée de la Chartreuse en âne.
Sappey en chartreuse / Plat Ferrier
-11h depart du camping du Sappey
-Course au Sappey en Chartreuse (1 midi & 1 soir).
-13h Casse croute du midi à l'Emeindras du dessous, superbe vue sur Chamechaude.
-19h arrivé au Plat Ferrier.
-Campement dans une prairie peu arborée. 
-Repas sur place.]]></desc>
  </metadata>
  <trk>
    <name><![CDATA[20180512133754-BbUJm]]></name>
    <trkseg>
      <trkpt lat="45.26078" lon="5.77452">
        <ele>1006</ele>
      </trkpt>
      <trkpt lat="45.26" lon="5.77624">
        <ele>1005</ele>
      </trkpt>
      <trkpt lat="45.25991" lon="5.77721">
        <ele>1006</ele>
      </trkpt>
      <trkpt lat="45.26071" lon="5.77736">
        <ele>1014</ele>
      </trkpt>
      <trkpt lat="45.25982" lon="5.77735">
        <ele>1006</ele>
      </trkpt>
      <trkpt lat="45.25989" lon="5.77778">
        <ele>1008</ele>
      </trkpt>
      <trkpt lat="45.25981" lon="5.77807">
        <ele>1008</ele>
      </trkpt>
      <trkpt lat="45.25958" lon="5.77817">
        <ele>1008</ele>
      </trkpt>
      <trkpt lat="45.25936" lon="5.77834">
        <ele>1010</ele>
      </trkpt>
      <trkpt lat="45.26061" lon="5.7805">
        <ele>1039</ele>
        <time>2018-05-06T09:53:36Z</time>
      </trkpt>
      <trkpt lat="45.26063" lon="5.78057">
        <ele>1039</ele>
        <time>2018-05-06T09:53:48Z</time>
      </trkpt>
      <trkpt lat="45.26069" lon="5.78064">
        <ele>1041</ele>
        <time>2018-05-06T09:54:01Z</time>
      </trkpt>
      <trkpt lat="45.26071" lon="5.7807">
        <ele>1042</ele>
        <time>2018-05-06T09:54:07Z</time>
      </trkpt>
      <trkpt lat="45.26075" lon="5.78081">
        <ele>1044</ele>
        <time>2018-05-06T09:54:20Z</time>
      </trkpt>
      <trkpt lat="45.26075" lon="5.78082">
        <ele>1045</ele>
        <time>2018-05-06T09:54:21Z</time>
      </trkpt>
      <trkpt lat="45.26072" lon="5.78078">
        <ele>1043</ele>
        <time>2018-05-06T09:54:25Z</time>
      </trkpt>
      <trkpt lat="45.26077" lon="5.78081">
        <ele>1045</ele>
        <time>2018-05-06T09:54:40Z</time>
      </trkpt>
      <trkpt lat="45.26081" lon="5.78079">
        <ele>1046</ele>
        <time>2018-05-06T09:54:57Z</time>
      </trkpt>
      <trkpt lat="45.26084" lon="5.7808">
        <ele>1048</ele>
        <time>2018-05-06T09:55:11Z</time>
      </trkpt>
      <trkpt lat="45.26087" lon="5.7808">
        <ele>1048</ele>
        <time>2018-05-06T09:55:27Z</time>
      </trkpt>
      <trkpt lat="45.26094" lon="5.78072">
        <ele>1049</ele>
        <time>2018-05-06T09:55:38Z</time>
      </trkpt>
      <trkpt lat="45.26099" lon="5.78077">
        <ele>1049</ele>
        <time>2018-05-06T09:55:47Z</time>
      </trkpt>
      <trkpt lat="45.261" lon="5.78079">
        <ele>1049</ele>
        <time>2018-05-06T09:55:50Z</time>
      </trkpt>
      <trkpt lat="45.26101" lon="5.7808">
        <ele>1049</ele>
        <time>2018-05-06T09:55:51Z</time>
      </trkpt>
      <trkpt lat="45.26103" lon="5.78082">
        <ele>1049</ele>
        <time>2018-05-06T09:55:55Z</time>
      </trkpt>
      <trkpt lat="45.26105" lon="5.78085">
        <ele>1051</ele>
        <time>2018-05-06T09:55:58Z</time>
      </trkpt>
      <trkpt lat="45.26106" lon="5.78087">
        <ele>1051</ele>
        <time>2018-05-06T09:56:00Z</time>
      </trkpt>
      <trkpt lat="45.26108" lon="5.7809">
        <ele>1051</ele>
        <time>2018-05-06T09:56:04Z</time>
      </trkpt>
      <trkpt lat="45.26111" lon="5.78097">
        <ele>1052</ele>
        <time>2018-05-06T09:56:10Z</time>
      </trkpt>
      <trkpt lat="45.26112" lon="5.78104">
        <ele>1052</ele>
        <time>2018-05-06T09:56:18Z</time>
      </trkpt>
      <trkpt lat="45.26112" lon="5.78106">
        <ele>1052</ele>
        <time>2018-05-06T09:56:24Z</time>
      </trkpt>
      <trkpt lat="45.26122" lon="5.78114">
        <ele>1053</ele>
        <time>2018-05-06T09:56:34Z</time>
      </trkpt>
      <trkpt lat="45.26126" lon="5.78119">
        <ele>1053</ele>
        <time>2018-05-06T09:56:47Z</time>
      </trkpt>
      <trkpt lat="45.26129" lon="5.78121">
        <ele>1053</ele>
        <time>2018-05-06T09:57:04Z</time>
      </trkpt>
      <trkpt lat="45.26134" lon="5.78124">
        <ele>1054</ele>
        <time>2018-05-06T09:57:15Z</time>
      </trkpt>
      <trkpt lat="45.26136" lon="5.78128">
        <ele>1054</ele>
        <time>2018-05-06T09:57:18Z</time>
      </trkpt>
      <trkpt lat="45.26137" lon="5.78129">
        <ele>1054</ele>
        <time>2018-05-06T09:57:20Z</time>
      </trkpt>
      <trkpt lat="45.26145" lon="5.78132">
        <ele>1054</ele>
        <time>2018-05-06T09:57:29Z</time>
      </trkpt>
      <trkpt lat="45.26154" lon="5.78139">
        <ele>1055</ele>
        <time>2018-05-06T09:57:38Z</time>
      </trkpt>
      <trkpt lat="45.26156" lon="5.7814">
        <ele>1056</ele>
        <time>2018-05-06T09:57:50Z</time>
      </trkpt>
      <trkpt lat="45.26163" lon="5.78147">
        <ele>1057</ele>
        <time>2018-05-06T09:58:06Z</time>
      </trkpt>
      <trkpt lat="45.26174" lon="5.78155">
        <ele>1062</ele>
        <time>2018-05-06T09:58:21Z</time>
      </trkpt>
      <trkpt lat="45.26176" lon="5.78157">
        <ele>1062</ele>
        <time>2018-05-06T09:58:31Z</time>
      </trkpt>
      <trkpt lat="45.26184" lon="5.78167">
        <ele>1064</ele>
        <time>2018-05-06T09:58:42Z</time>
      </trkpt>
      <trkpt lat="45.26185" lon="5.78168">
        <ele>1064</ele>
        <time>2018-05-06T09:58:43Z</time>
      </trkpt>
      <trkpt lat="45.26194" lon="5.78176">
        <ele>1066</ele>
        <time>2018-05-06T09:58:55Z</time>
      </trkpt>
      <trkpt lat="45.26198" lon="5.7818">
        <ele>1066</ele>
        <time>2018-05-06T09:59:00Z</time>
      </trkpt>
      <trkpt lat="45.26203" lon="5.78184">
        <ele>1067</ele>
        <time>2018-05-06T09:59:09Z</time>
      </trkpt>
      <trkpt lat="45.26215" lon="5.78192">
        <ele>1068</ele>
        <time>2018-05-06T09:59:22Z</time>
      </trkpt>
      <trkpt lat="45.26215" lon="5.78193">
        <ele>1068</ele>
        <time>2018-05-06T09:59:23Z</time>
      </trkpt>
      <trkpt lat="45.26222" lon="5.78203">
        <ele>1068</ele>
        <time>2018-05-06T09:59:35Z</time>
      </trkpt>
      <trkpt lat="45.26225" lon="5.78207">
        <ele>1069</ele>
        <time>2018-05-06T09:59:45Z</time>
      </trkpt>
      <trkpt lat="45.26239" lon="5.78212">
        <ele>1070</ele>
        <time>2018-05-06T09:59:59Z</time>
      </trkpt>
      <trkpt lat="45.26248" lon="5.78217">
        <ele>1070</ele>
        <time>2018-05-06T10:00:10Z</time>
      </trkpt>
      <trkpt lat="45.2626" lon="5.78222">
        <ele>1078</ele>
        <time>2018-05-06T10:00:22Z</time>
      </trkpt>
      <trkpt lat="45.26267" lon="5.78223">
        <ele>1079</ele>
        <time>2018-05-06T10:00:26Z</time>
      </trkpt>
      <trkpt lat="45.2628" lon="5.78226">
        <ele>1080</ele>
        <time>2018-05-06T10:00:37Z</time>
      </trkpt>
      <trkpt lat="45.26288" lon="5.78229">
        <ele>1080</ele>
        <time>2018-05-06T10:00:44Z</time>
      </trkpt>
      <trkpt lat="45.26294" lon="5.78233">
        <ele>1081</ele>
        <time>2018-05-06T10:00:58Z</time>
      </trkpt>
      <trkpt lat="45.26302" lon="5.78242">
        <ele>1082</ele>
        <time>2018-05-06T10:01:09Z</time>
      </trkpt>
      <trkpt lat="45.26308" lon="5.78248">
        <ele>1083</ele>
        <time>2018-05-06T10:01:22Z</time>
      </trkpt>
      <trkpt lat="45.26311" lon="5.78248">
        <ele>1084</ele>
        <time>2018-05-06T10:01:29Z</time>
      </trkpt>
      <trkpt lat="45.26326" lon="5.78254">
        <ele>1088</ele>
        <time>2018-05-06T10:01:43Z</time>
      </trkpt>
      <trkpt lat="45.26331" lon="5.78258">
        <ele>1088</ele>
        <time>2018-05-06T10:01:55Z</time>
      </trkpt>
      <trkpt lat="45.26338" lon="5.78263">
        <ele>1093</ele>
        <time>2018-05-06T10:02:07Z</time>
      </trkpt>
      <trkpt lat="45.26347" lon="5.7827">
        <ele>1094</ele>
        <time>2018-05-06T10:02:23Z</time>
      </trkpt>
      <trkpt lat="45.2636" lon="5.7828">
        <ele>1096</ele>
        <time>2018-05-06T10:02:37Z</time>
      </trkpt>
      <trkpt lat="45.26368" lon="5.78284">
        <ele>1096</ele>
        <time>2018-05-06T10:02:50Z</time>
      </trkpt>
      <trkpt lat="45.26373" lon="5.78293">
        <ele>1097</ele>
        <time>2018-05-06T10:03:06Z</time>
      </trkpt>
      <trkpt lat="45.26388" lon="5.78311">
        <ele>1099</ele>
        <time>2018-05-06T10:03:19Z</time>
      </trkpt>
      <trkpt lat="45.26405" lon="5.78317">
        <ele>1101</ele>
        <time>2018-05-06T10:03:32Z</time>
      </trkpt>
      <trkpt lat="45.26418" lon="5.78322">
        <ele>1103</ele>
        <time>2018-05-06T10:03:45Z</time>
      </trkpt>
      <trkpt lat="45.26429" lon="5.78328">
        <ele>1103</ele>
        <time>2018-05-06T10:03:58Z</time>
      </trkpt>
      <trkpt lat="45.26448" lon="5.78333">
        <ele>1101</ele>
        <time>2018-05-06T10:04:14Z</time>
      </trkpt>
      <trkpt lat="45.26447" lon="5.78337">
        <ele>1108</ele>
        <time>2018-05-06T10:04:30Z</time>
      </trkpt>
      <trkpt lat="45.26447" lon="5.7834">
        <ele>1108</ele>
        <time>2018-05-06T10:04:51Z</time>
      </trkpt>
      <trkpt lat="45.26444" lon="5.78337">
        <ele>1108</ele>
        <time>2018-05-06T10:05:11Z</time>
      </trkpt>
      <trkpt lat="45.26445" lon="5.78337">
        <ele>1108</ele>
        <time>2018-05-06T10:05:27Z</time>
      </trkpt>
      <trkpt lat="45.26447" lon="5.78339">
        <ele>1108</ele>
        <time>2018-05-06T10:05:41Z</time>
      </trkpt>
      <trkpt lat="45.26459" lon="5.78354">
        <ele>1109</ele>
        <time>2018-05-06T10:05:54Z</time>
      </trkpt>
      <trkpt lat="45.26465" lon="5.7836">
        <ele>1109</ele>
        <time>2018-05-06T10:06:03Z</time>
      </trkpt>
      <trkpt lat="45.26474" lon="5.7837">
        <ele>1110</ele>
        <time>2018-05-06T10:06:15Z</time>
      </trkpt>
      <trkpt lat="45.26479" lon="5.78382">
        <ele>1111</ele>
        <time>2018-05-06T10:06:27Z</time>
      </trkpt>
      <trkpt lat="45.26484" lon="5.78392">
        <ele>1113</ele>
        <time>2018-05-06T10:06:45Z</time>
      </trkpt>
      <trkpt lat="45.2649" lon="5.78401">
        <ele>1115</ele>
        <time>2018-05-06T10:06:58Z</time>
      </trkpt>
      <trkpt lat="45.26494" lon="5.78403">
        <ele>1116</ele>
        <time>2018-05-06T10:07:21Z</time>
      </trkpt>
      <trkpt lat="45.26494" lon="5.78403">
        <ele>1116</ele>
        <time>2018-05-06T10:07:28Z</time>
      </trkpt>
      <trkpt lat="45.26493" lon="5.78401">
        <ele>1116</ele>
        <time>2018-05-06T10:07:47Z</time>
      </trkpt>
      <trkpt lat="45.26493" lon="5.78401">
        <ele>1116</ele>
        <time>2018-05-06T10:08:07Z</time>
      </trkpt>
      <trkpt lat="45.26497" lon="5.78402">
        <ele>1116</ele>
        <time>2018-05-06T10:08:39Z</time>
      </trkpt>
      <trkpt lat="45.26498" lon="5.78404">
        <ele>1117</ele>
        <time>2018-05-06T10:09:12Z</time>
      </trkpt>
      <trkpt lat="45.26498" lon="5.78404">
        <ele>1117</ele>
        <time>2018-05-06T10:09:45Z</time>
      </trkpt>
      <trkpt lat="45.26499" lon="5.78403">
        <ele>1117</ele>
        <time>2018-05-06T10:10:16Z</time>
      </trkpt>
      <trkpt lat="45.26498" lon="5.78405">
        <ele>1117</ele>
        <time>2018-05-06T10:10:50Z</time>
      </trkpt>
      <trkpt lat="45.26499" lon="5.78405">
        <ele>1117</ele>
        <time>2018-05-06T10:11:25Z</time>
      </trkpt>
      <trkpt lat="45.26499" lon="5.78405">
        <ele>1117</ele>
        <time>2018-05-06T10:11:57Z</time>
      </trkpt>
      <trkpt lat="45.26499" lon="5.78405">
        <ele>1117</ele>
        <time>2018-05-06T10:12:26Z</time>
      </trkpt>
      <trkpt lat="45.265" lon="5.78405">
        <ele>1118</ele>
        <time>2018-05-06T10:12:57Z</time>
      </trkpt>
      <trkpt lat="45.26499" lon="5.78404">
        <ele>1117</ele>
        <time>2018-05-06T10:13:32Z</time>
      </trkpt>
      <trkpt lat="45.265" lon="5.78405">
        <ele>1118</ele>
        <time>2018-05-06T10:14:07Z</time>
      </trkpt>
      <trkpt lat="45.265" lon="5.78406">
        <ele>1118</ele>
        <time>2018-05-06T10:14:37Z</time>
      </trkpt>
      <trkpt lat="45.265" lon="5.78405">
        <ele>1117</ele>
        <time>2018-05-06T10:15:08Z</time>
      </trkpt>
      <trkpt lat="45.265" lon="5.78405">
        <ele>1117</ele>
        <time>2018-05-06T10:15:42Z</time>
      </trkpt>
      <trkpt lat="45.26499" lon="5.78406">
        <ele>1117</ele>
        <time>2018-05-06T10:16:10Z</time>
      </trkpt>
      <trkpt lat="45.26499" lon="5.78406">
        <ele>1117</ele>
        <time>2018-05-06T10:16:36Z</time>
      </trkpt>
      <trkpt lat="45.26499" lon="5.78405">
        <ele>1117</ele>
        <time>2018-05-06T10:17:00Z</time>
      </trkpt>
      <trkpt lat="45.26499" lon="5.78405">
        <ele>1117</ele>
        <time>2018-05-06T10:17:03Z</time>
      </trkpt>
      <trkpt lat="45.26502" lon="5.78412">
        <ele>1120</ele>
        <time>2018-05-06T10:17:18Z</time>
      </trkpt>
      <trkpt lat="45.265" lon="5.78414">
        <ele>1121</ele>
        <time>2018-05-06T10:17:29Z</time>
      </trkpt>
      <trkpt lat="45.26499" lon="5.78414">
        <ele>1120</ele>
        <time>2018-05-06T10:17:40Z</time>
      </trkpt>
      <trkpt lat="45.265" lon="5.78422">
        <ele>1121</ele>
        <time>2018-05-06T10:17:54Z</time>
      </trkpt>
      <trkpt lat="45.26505" lon="5.78425">
        <ele>1124</ele>
        <time>2018-05-06T10:18:02Z</time>
      </trkpt>
      <trkpt lat="45.26512" lon="5.78433">
        <ele>1125</ele>
        <time>2018-05-06T10:18:15Z</time>
      </trkpt>
      <trkpt lat="45.26516" lon="5.78444">
        <ele>1126</ele>
        <time>2018-05-06T10:18:28Z</time>
      </trkpt>
      <trkpt lat="45.26522" lon="5.78456">
        <ele>1127</ele>
        <time>2018-05-06T10:18:41Z</time>
      </trkpt>
      <trkpt lat="45.26532" lon="5.7847">
        <ele>1128</ele>
        <time>2018-05-06T10:18:58Z</time>
      </trkpt>
      <trkpt lat="45.26539" lon="5.7848">
        <ele>1129</ele>
        <time>2018-05-06T10:19:08Z</time>
      </trkpt>
      <trkpt lat="45.2654" lon="5.78481">
        <ele>1129</ele>
        <time>2018-05-06T10:19:09Z</time>
      </trkpt>
      <trkpt lat="45.2655" lon="5.78484">
        <ele>1130</ele>
        <time>2018-05-06T10:19:22Z</time>
      </trkpt>
      <trkpt lat="45.2655" lon="5.78485">
        <ele>1130</ele>
        <time>2018-05-06T10:19:36Z</time>
      </trkpt>
      <trkpt lat="45.26551" lon="5.78486">
        <ele>1130</ele>
        <time>2018-05-06T10:19:56Z</time>
      </trkpt>
      <trkpt lat="45.26551" lon="5.78487">
        <ele>1130</ele>
        <time>2018-05-06T10:20:23Z</time>
      </trkpt>
      <trkpt lat="45.2655" lon="5.78492">
        <ele>1130</ele>
        <time>2018-05-06T10:20:39Z</time>
      </trkpt>
      <trkpt lat="45.2655" lon="5.78493">
        <ele>1130</ele>
        <time>2018-05-06T10:20:40Z</time>
      </trkpt>
      <trkpt lat="45.26551" lon="5.785">
        <ele>1130</ele>
        <time>2018-05-06T10:20:47Z</time>
      </trkpt>
      <trkpt lat="45.26557" lon="5.78518">
        <ele>1136</ele>
        <time>2018-05-06T10:21:00Z</time>
      </trkpt>
      <trkpt lat="45.26558" lon="5.78529">
        <ele>1136</ele>
        <time>2018-05-06T10:21:09Z</time>
      </trkpt>
      <trkpt lat="45.26558" lon="5.78549">
        <ele>1137</ele>
        <time>2018-05-06T10:21:22Z</time>
      </trkpt>
      <trkpt lat="45.26557" lon="5.78565">
        <ele>1138</ele>
        <time>2018-05-06T10:21:35Z</time>
      </trkpt>
      <trkpt lat="45.26556" lon="5.78577">
        <ele>1139</ele>
        <time>2018-05-06T10:21:41Z</time>
      </trkpt>
      <trkpt lat="45.26556" lon="5.78581">
        <ele>1139</ele>
        <time>2018-05-06T10:21:43Z</time>
      </trkpt>
      <trkpt lat="45.26557" lon="5.78603">
        <ele>1142</ele>
        <time>2018-05-06T10:21:56Z</time>
      </trkpt>
      <trkpt lat="45.26565" lon="5.7862">
        <ele>1143</ele>
        <time>2018-05-06T10:22:10Z</time>
      </trkpt>
      <trkpt lat="45.26565" lon="5.78619">
        <ele>1143</ele>
        <time>2018-05-06T10:22:15Z</time>
      </trkpt>
      <trkpt lat="45.26569" lon="5.78636">
        <ele>1144</ele>
        <time>2018-05-06T10:22:28Z</time>
      </trkpt>
      <trkpt lat="45.26569" lon="5.78643">
        <ele>1144</ele>
        <time>2018-05-06T10:22:32Z</time>
      </trkpt>
      <trkpt lat="45.26573" lon="5.78666">
        <ele>1148</ele>
        <time>2018-05-06T10:22:47Z</time>
      </trkpt>
      <trkpt lat="45.26578" lon="5.78675">
        <ele>1148</ele>
        <time>2018-05-06T10:22:59Z</time>
      </trkpt>
      <trkpt lat="45.26579" lon="5.78677">
        <ele>1148</ele>
        <time>2018-05-06T10:23:11Z</time>
      </trkpt>
      <trkpt lat="45.2658" lon="5.78679">
        <ele>1148</ele>
        <time>2018-05-06T10:23:13Z</time>
      </trkpt>
      <trkpt lat="45.26581" lon="5.78687">
        <ele>1146</ele>
        <time>2018-05-06T10:23:24Z</time>
      </trkpt>
      <trkpt lat="45.26582" lon="5.78689">
        <ele>1146</ele>
        <time>2018-05-06T10:23:25Z</time>
      </trkpt>
      <trkpt lat="45.26588" lon="5.78705">
        <ele>1154</ele>
        <time>2018-05-06T10:23:40Z</time>
      </trkpt>
      <trkpt lat="45.26594" lon="5.78722">
        <ele>1154</ele>
        <time>2018-05-06T10:23:53Z</time>
      </trkpt>
      <trkpt lat="45.26595" lon="5.78723">
        <ele>1154</ele>
        <time>2018-05-06T10:23:56Z</time>
      </trkpt>
      <trkpt lat="45.26604" lon="5.7873">
        <ele>1154</ele>
        <time>2018-05-06T10:24:10Z</time>
      </trkpt>
      <trkpt lat="45.26605" lon="5.78732">
        <ele>1154</ele>
        <time>2018-05-06T10:24:12Z</time>
      </trkpt>
      <trkpt lat="45.26607" lon="5.7874">
        <ele>1154</ele>
        <time>2018-05-06T10:24:16Z</time>
      </trkpt>
      <trkpt lat="45.2661" lon="5.78747">
        <ele>1154</ele>
        <time>2018-05-06T10:24:20Z</time>
      </trkpt>
      <trkpt lat="45.26612" lon="5.78754">
        <ele>1153</ele>
        <time>2018-05-06T10:24:24Z</time>
      </trkpt>
      <trkpt lat="45.26619" lon="5.78768">
        <ele>1154</ele>
        <time>2018-05-06T10:24:33Z</time>
      </trkpt>
      <trkpt lat="45.2662" lon="5.78773">
        <ele>1154</ele>
        <time>2018-05-06T10:24:36Z</time>
      </trkpt>
      <trkpt lat="45.26621" lon="5.78775">
        <ele>1154</ele>
        <time>2018-05-06T10:24:38Z</time>
      </trkpt>
      <trkpt lat="45.26632" lon="5.78801">
        <ele>1155</ele>
        <time>2018-05-06T10:24:55Z</time>
      </trkpt>
      <trkpt lat="45.26632" lon="5.78805">
        <ele>1155</ele>
        <time>2018-05-06T10:24:57Z</time>
      </trkpt>
      <trkpt lat="45.26639" lon="5.7883">
        <ele>1157</ele>
        <time>2018-05-06T10:25:12Z</time>
      </trkpt>
      <trkpt lat="45.26642" lon="5.78837">
        <ele>1158</ele>
        <time>2018-05-06T10:25:16Z</time>
      </trkpt>
      <trkpt lat="45.26644" lon="5.7884">
        <ele>1158</ele>
        <time>2018-05-06T10:25:19Z</time>
      </trkpt>
      <trkpt lat="45.26648" lon="5.78848">
        <ele>1159</ele>
        <time>2018-05-06T10:25:24Z</time>
      </trkpt>
      <trkpt lat="45.26659" lon="5.78867">
        <ele>1159</ele>
        <time>2018-05-06T10:25:37Z</time>
      </trkpt>
      <trkpt lat="45.26667" lon="5.78866">
        <ele>1169</ele>
        <time>2018-05-06T10:25:48Z</time>
      </trkpt>
      <trkpt lat="45.26669" lon="5.78867">
        <ele>1169</ele>
        <time>2018-05-06T10:26:06Z</time>
      </trkpt>
      <trkpt lat="45.26669" lon="5.78867">
        <ele>1169</ele>
        <time>2018-05-06T10:26:24Z</time>
      </trkpt>
      <trkpt lat="45.26671" lon="5.78866">
        <ele>1169</ele>
        <time>2018-05-06T10:26:36Z</time>
      </trkpt>
      <trkpt lat="45.26673" lon="5.78863">
        <ele>1169</ele>
        <time>2018-05-06T10:26:44Z</time>
      </trkpt>
      <trkpt lat="45.26675" lon="5.78861">
        <ele>1169</ele>
        <time>2018-05-06T10:26:46Z</time>
      </trkpt>
      <trkpt lat="45.26686" lon="5.78846">
        <ele>1169</ele>
        <time>2018-05-06T10:26:58Z</time>
      </trkpt>
      <trkpt lat="45.26695" lon="5.78834">
        <ele>1170</ele>
        <time>2018-05-06T10:27:09Z</time>
      </trkpt>
      <trkpt lat="45.26697" lon="5.78831">
        <ele>1169</ele>
        <time>2018-05-06T10:27:11Z</time>
      </trkpt>
      <trkpt lat="45.26702" lon="5.78828">
        <ele>1170</ele>
        <time>2018-05-06T10:27:15Z</time>
      </trkpt>
      <trkpt lat="45.26706" lon="5.78818">
        <ele>1170</ele>
        <time>2018-05-06T10:27:30Z</time>
      </trkpt>
      <trkpt lat="45.26706" lon="5.78818">
        <ele>1170</ele>
        <time>2018-05-06T10:27:38Z</time>
      </trkpt>
      <trkpt lat="45.26705" lon="5.78821">
        <ele>1170</ele>
        <time>2018-05-06T10:27:41Z</time>
      </trkpt>
      <trkpt lat="45.267" lon="5.78831">
        <ele>1170</ele>
        <time>2018-05-06T10:27:56Z</time>
      </trkpt>
      <trkpt lat="45.26697" lon="5.78834">
        <ele>1170</ele>
        <time>2018-05-06T10:28:03Z</time>
      </trkpt>
      <trkpt lat="45.26692" lon="5.7884">
        <ele>1169</ele>
        <time>2018-05-06T10:28:08Z</time>
      </trkpt>
      <trkpt lat="45.26679" lon="5.78856">
        <ele>1169</ele>
        <time>2018-05-06T10:28:23Z</time>
      </trkpt>
      <trkpt lat="45.26676" lon="5.7886">
        <ele>1169</ele>
        <time>2018-05-06T10:28:26Z</time>
      </trkpt>
      <trkpt lat="45.26671" lon="5.78864">
        <ele>1169</ele>
        <time>2018-05-06T10:28:31Z</time>
      </trkpt>
      <trkpt lat="45.26667" lon="5.78868">
        <ele>1169</ele>
        <time>2018-05-06T10:28:35Z</time>
      </trkpt>
      <trkpt lat="45.26665" lon="5.7887">
        <ele>1159</ele>
        <time>2018-05-06T10:28:37Z</time>
      </trkpt>
      <trkpt lat="45.26664" lon="5.78872">
        <ele>1159</ele>
        <time>2018-05-06T10:28:52Z</time>
      </trkpt>
      <trkpt lat="45.26664" lon="5.78872">
        <ele>1159</ele>
        <time>2018-05-06T10:29:09Z</time>
      </trkpt>
      <trkpt lat="45.26664" lon="5.78872">
        <ele>1159</ele>
        <time>2018-05-06T10:29:26Z</time>
      </trkpt>
      <trkpt lat="45.26664" lon="5.78872">
        <ele>1159</ele>
        <time>2018-05-06T10:29:44Z</time>
      </trkpt>
      <trkpt lat="45.26664" lon="5.78873">
        <ele>1159</ele>
        <time>2018-05-06T10:30:15Z</time>
      </trkpt>
      <trkpt lat="45.26664" lon="5.78872">
        <ele>1159</ele>
        <time>2018-05-06T10:30:43Z</time>
      </trkpt>
      <trkpt lat="45.26663" lon="5.78871">
        <ele>1159</ele>
        <time>2018-05-06T10:30:47Z</time>
      </trkpt>
      <trkpt lat="45.2666" lon="5.78867">
        <ele>1159</ele>
        <time>2018-05-06T10:30:58Z</time>
      </trkpt>
      <trkpt lat="45.2666" lon="5.78871">
        <ele>1159</ele>
        <time>2018-05-06T10:31:13Z</time>
      </trkpt>
      <trkpt lat="45.2666" lon="5.78878">
        <ele>1159</ele>
        <time>2018-05-06T10:31:22Z</time>
      </trkpt>
      <trkpt lat="45.26659" lon="5.78882">
        <ele>1159</ele>
        <time>2018-05-06T10:31:25Z</time>
      </trkpt>
      <trkpt lat="45.26657" lon="5.78887">
        <ele>1159</ele>
        <time>2018-05-06T10:31:30Z</time>
      </trkpt>
      <trkpt lat="45.26654" lon="5.78892">
        <ele>1159</ele>
        <time>2018-05-06T10:31:34Z</time>
      </trkpt>
      <trkpt lat="45.26651" lon="5.789">
        <ele>1160</ele>
        <time>2018-05-06T10:31:40Z</time>
      </trkpt>
      <trkpt lat="45.26652" lon="5.78909">
        <ele>1161</ele>
        <time>2018-05-06T10:31:54Z</time>
      </trkpt>
      <trkpt lat="45.26652" lon="5.78907">
        <ele>1160</ele>
        <time>2018-05-06T10:32:02Z</time>
      </trkpt>
      <trkpt lat="45.26652" lon="5.78914">
        <ele>1161</ele>
        <time>2018-05-06T10:32:09Z</time>
      </trkpt>
      <trkpt lat="45.26659" lon="5.78934">
        <ele>1162</ele>
        <time>2018-05-06T10:32:25Z</time>
      </trkpt>
      <trkpt lat="45.26665" lon="5.7896">
        <ele>1162</ele>
        <time>2018-05-06T10:32:39Z</time>
      </trkpt>
      <trkpt lat="45.26668" lon="5.78972">
        <ele>1172</ele>
        <time>2018-05-06T10:32:52Z</time>
      </trkpt>
      <trkpt lat="45.26668" lon="5.78973">
        <ele>1172</ele>
        <time>2018-05-06T10:32:53Z</time>
      </trkpt>
      <trkpt lat="45.26672" lon="5.78987">
        <ele>1171</ele>
        <time>2018-05-06T10:33:04Z</time>
      </trkpt>
      <trkpt lat="45.26678" lon="5.79008">
        <ele>1173</ele>
        <time>2018-05-06T10:33:18Z</time>
      </trkpt>
      <trkpt lat="45.26683" lon="5.79025">
        <ele>1176</ele>
        <time>2018-05-06T10:33:32Z</time>
      </trkpt>
      <trkpt lat="45.26686" lon="5.79035">
        <ele>1177</ele>
        <time>2018-05-06T10:33:44Z</time>
      </trkpt>
      <trkpt lat="45.26692" lon="5.79039">
        <ele>1178</ele>
        <time>2018-05-06T10:33:52Z</time>
      </trkpt>
      <trkpt lat="45.26696" lon="5.7905">
        <ele>1179</ele>
        <time>2018-05-06T10:33:57Z</time>
      </trkpt>
      <trkpt lat="45.26702" lon="5.7907">
        <ele>1180</ele>
        <time>2018-05-06T10:34:11Z</time>
      </trkpt>
      <trkpt lat="45.26704" lon="5.79077">
        <ele>1180</ele>
        <time>2018-05-06T10:34:16Z</time>
      </trkpt>
      <trkpt lat="45.26707" lon="5.79091">
        <ele>1181</ele>
        <time>2018-05-06T10:34:28Z</time>
      </trkpt>
      <trkpt lat="45.26714" lon="5.79104">
        <ele>1182</ele>
        <time>2018-05-06T10:34:40Z</time>
      </trkpt>
      <trkpt lat="45.26721" lon="5.79118">
        <ele>1183</ele>
        <time>2018-05-06T10:34:51Z</time>
      </trkpt>
      <trkpt lat="45.26724" lon="5.79133">
        <ele>1183</ele>
        <time>2018-05-06T10:35:02Z</time>
      </trkpt>
      <trkpt lat="45.26729" lon="5.79156">
        <ele>1185</ele>
        <time>2018-05-06T10:35:17Z</time>
      </trkpt>
      <trkpt lat="45.26733" lon="5.79167">
        <ele>1186</ele>
        <time>2018-05-06T10:35:24Z</time>
      </trkpt>
      <trkpt lat="45.26734" lon="5.79171">
        <ele>1182</ele>
        <time>2018-05-06T10:35:27Z</time>
      </trkpt>
      <trkpt lat="45.26739" lon="5.79179">
        <ele>1182</ele>
        <time>2018-05-06T10:35:35Z</time>
      </trkpt>
      <trkpt lat="45.26742" lon="5.7918">
        <ele>1183</ele>
        <time>2018-05-06T10:35:38Z</time>
      </trkpt>
      <trkpt lat="45.26745" lon="5.79184">
        <ele>1182</ele>
        <time>2018-05-06T10:35:42Z</time>
      </trkpt>
      <trkpt lat="45.26751" lon="5.79197">
        <ele>1198</ele>
        <time>2018-05-06T10:35:52Z</time>
      </trkpt>
      <trkpt lat="45.26758" lon="5.79213">
        <ele>1198</ele>
        <time>2018-05-06T10:36:04Z</time>
      </trkpt>
      <trkpt lat="45.2676" lon="5.79231">
        <ele>1195</ele>
        <time>2018-05-06T10:36:14Z</time>
      </trkpt>
      <trkpt lat="45.26769" lon="5.79249">
        <ele>1195</ele>
        <time>2018-05-06T10:36:28Z</time>
      </trkpt>
      <trkpt lat="45.26773" lon="5.79261">
        <ele>1189</ele>
        <time>2018-05-06T10:36:40Z</time>
      </trkpt>
      <trkpt lat="45.26774" lon="5.79259">
        <ele>1189</ele>
        <time>2018-05-06T10:37:02Z</time>
      </trkpt>
      <trkpt lat="45.26775" lon="5.7926">
        <ele>1189</ele>
        <time>2018-05-06T10:37:18Z</time>
      </trkpt>
      <trkpt lat="45.26776" lon="5.7926">
        <ele>1190</ele>
        <time>2018-05-06T10:37:48Z</time>
      </trkpt>
      <trkpt lat="45.26778" lon="5.7926">
        <ele>1190</ele>
        <time>2018-05-06T10:38:13Z</time>
      </trkpt>
      <trkpt lat="45.26778" lon="5.79259">
        <ele>1190</ele>
        <time>2018-05-06T10:38:30Z</time>
      </trkpt>
      <trkpt lat="45.26781" lon="5.79265">
        <ele>1191</ele>
        <time>2018-05-06T10:38:40Z</time>
      </trkpt>
      <trkpt lat="45.26787" lon="5.79271">
        <ele>1192</ele>
        <time>2018-05-06T10:38:52Z</time>
      </trkpt>
      <trkpt lat="45.26793" lon="5.79277">
        <ele>1193</ele>
        <time>2018-05-06T10:39:02Z</time>
      </trkpt>
      <trkpt lat="45.26805" lon="5.79288">
        <ele>1194</ele>
        <time>2018-05-06T10:39:16Z</time>
      </trkpt>
      <trkpt lat="45.26813" lon="5.79294">
        <ele>1194</ele>
        <time>2018-05-06T10:39:29Z</time>
      </trkpt>
      <trkpt lat="45.26819" lon="5.79305">
        <ele>1195</ele>
        <time>2018-05-06T10:39:40Z</time>
      </trkpt>
      <trkpt lat="45.26826" lon="5.7931">
        <ele>1196</ele>
        <time>2018-05-06T10:39:54Z</time>
      </trkpt>
      <trkpt lat="45.26829" lon="5.79311">
        <ele>1196</ele>
        <time>2018-05-06T10:39:57Z</time>
      </trkpt>
      <trkpt lat="45.26848" lon="5.7933">
        <ele>1207</ele>
        <time>2018-05-06T10:40:16Z</time>
      </trkpt>
      <trkpt lat="45.26857" lon="5.79354">
        <ele>1199</ele>
        <time>2018-05-06T10:40:31Z</time>
      </trkpt>
      <trkpt lat="45.26866" lon="5.79363">
        <ele>1199</ele>
        <time>2018-05-06T10:40:44Z</time>
      </trkpt>
      <trkpt lat="45.26881" lon="5.79363">
        <ele>1200</ele>
        <time>2018-05-06T10:40:57Z</time>
      </trkpt>
      <trkpt lat="45.26894" lon="5.79368">
        <ele>1200</ele>
        <time>2018-05-06T10:41:11Z</time>
      </trkpt>
      <trkpt lat="45.26908" lon="5.79368">
        <ele>1201</ele>
        <time>2018-05-06T10:41:24Z</time>
      </trkpt>
      <trkpt lat="45.26919" lon="5.79362">
        <ele>1204</ele>
        <time>2018-05-06T10:41:36Z</time>
      </trkpt>
      <trkpt lat="45.26931" lon="5.79352">
        <ele>1205</ele>
        <time>2018-05-06T10:41:49Z</time>
      </trkpt>
      <trkpt lat="45.26946" lon="5.79343">
        <ele>1204</ele>
        <time>2018-05-06T10:42:03Z</time>
      </trkpt>
      <trkpt lat="45.2696" lon="5.79335">
        <ele>1203</ele>
        <time>2018-05-06T10:42:15Z</time>
      </trkpt>
      <trkpt lat="45.26978" lon="5.79329">
        <ele>1210</ele>
        <time>2018-05-06T10:42:29Z</time>
      </trkpt>
      <trkpt lat="45.26992" lon="5.79336">
        <ele>1202</ele>
        <time>2018-05-06T10:42:40Z</time>
      </trkpt>
      <trkpt lat="45.27002" lon="5.79341">
        <ele>1203</ele>
        <time>2018-05-06T10:42:51Z</time>
      </trkpt>
      <trkpt lat="45.2701" lon="5.79348">
        <ele>1203</ele>
        <time>2018-05-06T10:43:03Z</time>
      </trkpt>
      <trkpt lat="45.27017" lon="5.79353">
        <ele>1203</ele>
        <time>2018-05-06T10:43:15Z</time>
      </trkpt>
      <trkpt lat="45.27021" lon="5.79356">
        <ele>1203</ele>
        <time>2018-05-06T10:43:25Z</time>
      </trkpt>
      <trkpt lat="45.27028" lon="5.79363">
        <ele>1204</ele>
        <time>2018-05-06T10:43:38Z</time>
      </trkpt>
      <trkpt lat="45.27031" lon="5.79365">
        <ele>1204</ele>
        <time>2018-05-06T10:43:51Z</time>
      </trkpt>
      <trkpt lat="45.2703" lon="5.79367">
        <ele>1204</ele>
        <time>2018-05-06T10:43:54Z</time>
      </trkpt>
      <trkpt lat="45.27031" lon="5.79384">
        <ele>1203</ele>
        <time>2018-05-06T10:44:07Z</time>
      </trkpt>
      <trkpt lat="45.27031" lon="5.79397">
        <ele>1202</ele>
        <time>2018-05-06T10:44:18Z</time>
      </trkpt>
      <trkpt lat="45.27039" lon="5.79401">
        <ele>1203</ele>
        <time>2018-05-06T10:44:30Z</time>
      </trkpt>
      <trkpt lat="45.27052" lon="5.79399">
        <ele>1205</ele>
        <time>2018-05-06T10:44:42Z</time>
      </trkpt>
      <trkpt lat="45.27052" lon="5.794">
        <ele>1205</ele>
        <time>2018-05-06T10:44:45Z</time>
      </trkpt>
      <trkpt lat="45.27053" lon="5.79413">
        <ele>1205</ele>
        <time>2018-05-06T10:44:57Z</time>
      </trkpt>
      <trkpt lat="45.27053" lon="5.79427">
        <ele>1203</ele>
        <time>2018-05-06T10:45:08Z</time>
      </trkpt>
      <trkpt lat="45.27058" lon="5.79436">
        <ele>1203</ele>
        <time>2018-05-06T10:45:21Z</time>
      </trkpt>
      <trkpt lat="45.27056" lon="5.7944">
        <ele>1203</ele>
        <time>2018-05-06T10:45:35Z</time>
      </trkpt>
      <trkpt lat="45.27057" lon="5.79444">
        <ele>1202</ele>
        <time>2018-05-06T10:45:47Z</time>
      </trkpt>
      <trkpt lat="45.27056" lon="5.79445">
        <ele>1202</ele>
        <time>2018-05-06T10:46:00Z</time>
      </trkpt>
      <trkpt lat="45.27055" lon="5.79448">
        <ele>1202</ele>
        <time>2018-05-06T10:46:03Z</time>
      </trkpt>
      <trkpt lat="45.27061" lon="5.79464">
        <ele>1202</ele>
        <time>2018-05-06T10:46:15Z</time>
      </trkpt>
      <trkpt lat="45.27065" lon="5.79476">
        <ele>1203</ele>
        <time>2018-05-06T10:46:29Z</time>
      </trkpt>
      <trkpt lat="45.27071" lon="5.79496">
        <ele>1206</ele>
        <time>2018-05-06T10:46:41Z</time>
      </trkpt>
      <trkpt lat="45.27076" lon="5.79512">
        <ele>1203</ele>
        <time>2018-05-06T10:46:54Z</time>
      </trkpt>
      <trkpt lat="45.27077" lon="5.79523">
        <ele>1201</ele>
        <time>2018-05-06T10:47:07Z</time>
      </trkpt>
      <trkpt lat="45.27077" lon="5.79525">
        <ele>1200</ele>
        <time>2018-05-06T10:47:09Z</time>
      </trkpt>
      <trkpt lat="45.2708" lon="5.79537">
        <ele>1199</ele>
        <time>2018-05-06T10:47:18Z</time>
      </trkpt>
      <trkpt lat="45.2708" lon="5.79542">
        <ele>1199</ele>
        <time>2018-05-06T10:47:21Z</time>
      </trkpt>
      <trkpt lat="45.27081" lon="5.79549">
        <ele>1199</ele>
        <time>2018-05-06T10:47:26Z</time>
      </trkpt>
      <trkpt lat="45.27093" lon="5.79563">
        <ele>1219</ele>
        <time>2018-05-06T10:47:40Z</time>
      </trkpt>
      <trkpt lat="45.27094" lon="5.79564">
        <ele>1218</ele>
        <time>2018-05-06T10:47:41Z</time>
      </trkpt>
      <trkpt lat="45.27097" lon="5.79585">
        <ele>1214</ele>
        <time>2018-05-06T10:47:55Z</time>
      </trkpt>
      <trkpt lat="45.27098" lon="5.79592">
        <ele>1215</ele>
        <time>2018-05-06T10:48:08Z</time>
      </trkpt>
      <trkpt lat="45.271" lon="5.796">
        <ele>1217</ele>
        <time>2018-05-06T10:48:17Z</time>
      </trkpt>
      <trkpt lat="45.27098" lon="5.79616">
        <ele>1218</ele>
        <time>2018-05-06T10:48:29Z</time>
      </trkpt>
      <trkpt lat="45.271" lon="5.79624">
        <ele>1218</ele>
        <time>2018-05-06T10:48:34Z</time>
      </trkpt>
      <trkpt lat="45.27107" lon="5.79644">
        <ele>1218</ele>
        <time>2018-05-06T10:48:49Z</time>
      </trkpt>
      <trkpt lat="45.27109" lon="5.79648">
        <ele>1218</ele>
        <time>2018-05-06T10:48:59Z</time>
      </trkpt>
      <trkpt lat="45.27112" lon="5.79661">
        <ele>1218</ele>
        <time>2018-05-06T10:49:09Z</time>
      </trkpt>
      <trkpt lat="45.27114" lon="5.79674">
        <ele>1212</ele>
        <time>2018-05-06T10:49:17Z</time>
      </trkpt>
      <trkpt lat="45.27121" lon="5.79682">
        <ele>1214</ele>
        <time>2018-05-06T10:49:28Z</time>
      </trkpt>
      <trkpt lat="45.27126" lon="5.79696">
        <ele>1215</ele>
        <time>2018-05-06T10:49:39Z</time>
      </trkpt>
      <trkpt lat="45.2713" lon="5.79705">
        <ele>1215</ele>
        <time>2018-05-06T10:49:52Z</time>
      </trkpt>
      <trkpt lat="45.27133" lon="5.79707">
        <ele>1216</ele>
        <time>2018-05-06T10:50:02Z</time>
      </trkpt>
      <trkpt lat="45.27138" lon="5.79712">
        <ele>1216</ele>
        <time>2018-05-06T10:50:14Z</time>
      </trkpt>
      <trkpt lat="45.27139" lon="5.79713">
        <ele>1216</ele>
        <time>2018-05-06T10:50:18Z</time>
      </trkpt>
      <trkpt lat="45.27148" lon="5.79719">
        <ele>1218</ele>
        <time>2018-05-06T10:50:30Z</time>
      </trkpt>
      <trkpt lat="45.27158" lon="5.79728">
        <ele>1220</ele>
        <time>2018-05-06T10:50:43Z</time>
      </trkpt>
      <trkpt lat="45.27169" lon="5.79737">
        <ele>1235</ele>
        <time>2018-05-06T10:50:55Z</time>
      </trkpt>
      <trkpt lat="45.27179" lon="5.79747">
        <ele>1234</ele>
        <time>2018-05-06T10:51:05Z</time>
      </trkpt>
      <trkpt lat="45.27181" lon="5.7975">
        <ele>1224</ele>
        <time>2018-05-06T10:51:08Z</time>
      </trkpt>
      <trkpt lat="45.27187" lon="5.79754">
        <ele>1224</ele>
        <time>2018-05-06T10:51:13Z</time>
      </trkpt>
      <trkpt lat="45.272" lon="5.79762">
        <ele>1224</ele>
        <time>2018-05-06T10:51:26Z</time>
      </trkpt>
      <trkpt lat="45.27205" lon="5.79763">
        <ele>1225</ele>
        <time>2018-05-06T10:51:30Z</time>
      </trkpt>
      <trkpt lat="45.27212" lon="5.79763">
        <ele>1226</ele>
        <time>2018-05-06T10:51:36Z</time>
      </trkpt>
      <trkpt lat="45.27218" lon="5.79768">
        <ele>1227</ele>
        <time>2018-05-06T10:51:48Z</time>
      </trkpt>
      <trkpt lat="45.27225" lon="5.79769">
        <ele>1228</ele>
        <time>2018-05-06T10:52:00Z</time>
      </trkpt>
      <trkpt lat="45.27232" lon="5.79768">
        <ele>1231</ele>
        <time>2018-05-06T10:52:09Z</time>
      </trkpt>
      <trkpt lat="45.27235" lon="5.79767">
        <ele>1232</ele>
        <time>2018-05-06T10:52:17Z</time>
      </trkpt>
      <trkpt lat="45.27241" lon="5.79773">
        <ele>1231</ele>
        <time>2018-05-06T10:52:28Z</time>
      </trkpt>
      <trkpt lat="45.27241" lon="5.79774">
        <ele>1230</ele>
        <time>2018-05-06T10:52:49Z</time>
      </trkpt>
      <trkpt lat="45.2724" lon="5.79773">
        <ele>1231</ele>
        <time>2018-05-06T10:52:55Z</time>
      </trkpt>
      <trkpt lat="45.2724" lon="5.79769">
        <ele>1232</ele>
        <time>2018-05-06T10:53:07Z</time>
      </trkpt>
      <trkpt lat="45.27239" lon="5.79769">
        <ele>1232</ele>
        <time>2018-05-06T10:53:11Z</time>
      </trkpt>
      <trkpt lat="45.27244" lon="5.79779">
        <ele>1229</ele>
        <time>2018-05-06T10:53:24Z</time>
      </trkpt>
      <trkpt lat="45.27254" lon="5.79777">
        <ele>1242</ele>
        <time>2018-05-06T10:53:36Z</time>
      </trkpt>
      <trkpt lat="45.27255" lon="5.79778">
        <ele>1242</ele>
        <time>2018-05-06T10:53:39Z</time>
      </trkpt>
      <trkpt lat="45.27259" lon="5.79776">
        <ele>1242</ele>
        <time>2018-05-06T10:53:52Z</time>
      </trkpt>
      <trkpt lat="45.27255" lon="5.79777">
        <ele>1242</ele>
        <time>2018-05-06T10:54:06Z</time>
      </trkpt>
      <trkpt lat="45.2726" lon="5.79779">
        <ele>1241</ele>
        <time>2018-05-06T10:54:19Z</time>
      </trkpt>
      <trkpt lat="45.27272" lon="5.79782">
        <ele>1241</ele>
        <time>2018-05-06T10:54:33Z</time>
      </trkpt>
      <trkpt lat="45.27284" lon="5.79787">
        <ele>1241</ele>
        <time>2018-05-06T10:54:45Z</time>
      </trkpt>
      <trkpt lat="45.27296" lon="5.79793">
        <ele>1241</ele>
        <time>2018-05-06T10:54:56Z</time>
      </trkpt>
      <trkpt lat="45.27306" lon="5.79802">
        <ele>1241</ele>
        <time>2018-05-06T10:55:09Z</time>
      </trkpt>
      <trkpt lat="45.2731" lon="5.79806">
        <ele>1240</ele>
        <time>2018-05-06T10:55:13Z</time>
      </trkpt>
      <trkpt lat="45.27313" lon="5.79807">
        <ele>1240</ele>
        <time>2018-05-06T10:55:16Z</time>
      </trkpt>
      <trkpt lat="45.27321" lon="5.79817">
        <ele>1239</ele>
        <time>2018-05-06T10:55:26Z</time>
      </trkpt>
      <trkpt lat="45.27338" lon="5.79825">
        <ele>1242</ele>
        <time>2018-05-06T10:55:43Z</time>
      </trkpt>
      <trkpt lat="45.27342" lon="5.79824">
        <ele>1242</ele>
        <time>2018-05-06T10:55:46Z</time>
      </trkpt>
      <trkpt lat="45.27352" lon="5.79824">
        <ele>1244</ele>
        <time>2018-05-06T10:56:01Z</time>
      </trkpt>
      <trkpt lat="45.27362" lon="5.79819">
        <ele>1246</ele>
        <time>2018-05-06T10:56:12Z</time>
      </trkpt>
      <trkpt lat="45.27374" lon="5.79819">
        <ele>1247</ele>
        <time>2018-05-06T10:56:25Z</time>
      </trkpt>
      <trkpt lat="45.27391" lon="5.79812">
        <ele>1247</ele>
        <time>2018-05-06T10:56:40Z</time>
      </trkpt>
      <trkpt lat="45.27406" lon="5.79801">
        <ele>1249</ele>
        <time>2018-05-06T10:56:54Z</time>
      </trkpt>
      <trkpt lat="45.2742" lon="5.79792">
        <ele>1251</ele>
        <time>2018-05-06T10:57:09Z</time>
      </trkpt>
      <trkpt lat="45.27428" lon="5.79788">
        <ele>1252</ele>
        <time>2018-05-06T10:57:16Z</time>
      </trkpt>
      <trkpt lat="45.27445" lon="5.79784">
        <ele>1253</ele>
        <time>2018-05-06T10:57:30Z</time>
      </trkpt>
      <trkpt lat="45.27449" lon="5.7978">
        <ele>1253</ele>
        <time>2018-05-06T10:57:34Z</time>
      </trkpt>
      <trkpt lat="45.27453" lon="5.7978">
        <ele>1253</ele>
        <time>2018-05-06T10:57:37Z</time>
      </trkpt>
      <trkpt lat="45.2746" lon="5.79772">
        <ele>1255</ele>
        <time>2018-05-06T10:57:44Z</time>
      </trkpt>
      <trkpt lat="45.27461" lon="5.79769">
        <ele>1255</ele>
        <time>2018-05-06T10:57:47Z</time>
      </trkpt>
      <trkpt lat="45.27472" lon="5.79757">
        <ele>1257</ele>
        <time>2018-05-06T10:58:00Z</time>
      </trkpt>
      <trkpt lat="45.27483" lon="5.79744">
        <ele>1275</ele>
        <time>2018-05-06T10:58:13Z</time>
      </trkpt>
      <trkpt lat="45.27496" lon="5.79739">
        <ele>1274</ele>
        <time>2018-05-06T10:58:27Z</time>
      </trkpt>
      <trkpt lat="45.27497" lon="5.79739">
        <ele>1274</ele>
        <time>2018-05-06T10:58:28Z</time>
      </trkpt>
      <trkpt lat="45.27516" lon="5.79742">
        <ele>1279</ele>
        <time>2018-05-06T10:58:40Z</time>
      </trkpt>
      <trkpt lat="45.27527" lon="5.7975">
        <ele>1263</ele>
        <time>2018-05-06T10:58:52Z</time>
      </trkpt>
      <trkpt lat="45.27528" lon="5.79751">
        <ele>1263</ele>
        <time>2018-05-06T10:59:11Z</time>
      </trkpt>
      <trkpt lat="45.27533" lon="5.79756">
        <ele>1263</ele>
        <time>2018-05-06T10:59:22Z</time>
      </trkpt>
      <trkpt lat="45.27539" lon="5.79758">
        <ele>1263</ele>
        <time>2018-05-06T10:59:33Z</time>
      </trkpt>
      <trkpt lat="45.27545" lon="5.79762">
        <ele>1264</ele>
        <time>2018-05-06T10:59:43Z</time>
      </trkpt>
      <trkpt lat="45.27548" lon="5.7976">
        <ele>1264</ele>
        <time>2018-05-06T10:59:47Z</time>
      </trkpt>
      <trkpt lat="45.27559" lon="5.79762">
        <ele>1266</ele>
        <time>2018-05-06T10:59:58Z</time>
      </trkpt>
      <trkpt lat="45.27561" lon="5.79761">
        <ele>1267</ele>
        <time>2018-05-06T11:00:01Z</time>
      </trkpt>
      <trkpt lat="45.27574" lon="5.79767">
        <ele>1269</ele>
        <time>2018-05-06T11:00:14Z</time>
      </trkpt>
      <trkpt lat="45.27585" lon="5.79769">
        <ele>1276</ele>
        <time>2018-05-06T11:00:25Z</time>
      </trkpt>
      <trkpt lat="45.27588" lon="5.79771">
        <ele>1276</ele>
        <time>2018-05-06T11:00:29Z</time>
      </trkpt>
      <trkpt lat="45.27596" lon="5.79773">
        <ele>1275</ele>
        <time>2018-05-06T11:00:36Z</time>
      </trkpt>
      <trkpt lat="45.27606" lon="5.79779">
        <ele>1274</ele>
        <time>2018-05-06T11:00:47Z</time>
      </trkpt>
      <trkpt lat="45.27611" lon="5.79782">
        <ele>1274</ele>
        <time>2018-05-06T11:00:53Z</time>
      </trkpt>
      <trkpt lat="45.27623" lon="5.79789">
        <ele>1273</ele>
        <time>2018-05-06T11:01:07Z</time>
      </trkpt>
      <trkpt lat="45.27638" lon="5.79796">
        <ele>1274</ele>
        <time>2018-05-06T11:01:19Z</time>
      </trkpt>
      <trkpt lat="45.27649" lon="5.79803">
        <ele>1273</ele>
        <time>2018-05-06T11:01:31Z</time>
      </trkpt>
      <trkpt lat="45.27663" lon="5.7981">
        <ele>1273</ele>
        <time>2018-05-06T11:01:45Z</time>
      </trkpt>
      <trkpt lat="45.27677" lon="5.79817">
        <ele>1283</ele>
        <time>2018-05-06T11:02:00Z</time>
      </trkpt>
      <trkpt lat="45.27688" lon="5.79822">
        <ele>1286</ele>
        <time>2018-05-06T11:02:14Z</time>
      </trkpt>
      <trkpt lat="45.27695" lon="5.79834">
        <ele>1282</ele>
        <time>2018-05-06T11:02:30Z</time>
      </trkpt>
      <trkpt lat="45.27698" lon="5.79836">
        <ele>1283</ele>
        <time>2018-05-06T11:02:48Z</time>
      </trkpt>
      <trkpt lat="45.27699" lon="5.79843">
        <ele>1284</ele>
        <time>2018-05-06T11:03:04Z</time>
      </trkpt>
      <trkpt lat="45.27699" lon="5.79844">
        <ele>1284</ele>
        <time>2018-05-06T11:03:06Z</time>
      </trkpt>
      <trkpt lat="45.27699" lon="5.79853">
        <ele>1284</ele>
        <time>2018-05-06T11:03:16Z</time>
      </trkpt>
      <trkpt lat="45.27698" lon="5.79856">
        <ele>1284</ele>
        <time>2018-05-06T11:03:20Z</time>
      </trkpt>
      <trkpt lat="45.27704" lon="5.79858">
        <ele>1285</ele>
        <time>2018-05-06T11:03:24Z</time>
      </trkpt>
      <trkpt lat="45.27715" lon="5.79853">
        <ele>1288</ele>
        <time>2018-05-06T11:03:38Z</time>
      </trkpt>
      <trkpt lat="45.27717" lon="5.79853">
        <ele>1289</ele>
        <time>2018-05-06T11:03:56Z</time>
      </trkpt>
      <trkpt lat="45.27713" lon="5.79847">
        <ele>1288</ele>
        <time>2018-05-06T11:04:13Z</time>
      </trkpt>
      <trkpt lat="45.27705" lon="5.79836">
        <ele>1286</ele>
        <time>2018-05-06T11:04:26Z</time>
      </trkpt>
      <trkpt lat="45.27697" lon="5.79821">
        <ele>1289</ele>
        <time>2018-05-06T11:04:37Z</time>
      </trkpt>
      <trkpt lat="45.27695" lon="5.79818">
        <ele>1289</ele>
        <time>2018-05-06T11:04:39Z</time>
      </trkpt>
      <trkpt lat="45.27693" lon="5.79815">
        <ele>1289</ele>
        <time>2018-05-06T11:04:41Z</time>
      </trkpt>
      <trkpt lat="45.2769" lon="5.79812">
        <ele>1288</ele>
        <time>2018-05-06T11:04:44Z</time>
      </trkpt>
      <trkpt lat="45.2768" lon="5.79797">
        <ele>1290</ele>
        <time>2018-05-06T11:04:56Z</time>
      </trkpt>
      <trkpt lat="45.27675" lon="5.7979">
        <ele>1291</ele>
        <time>2018-05-06T11:05:07Z</time>
      </trkpt>
      <trkpt lat="45.27658" lon="5.79779">
        <ele>1279</ele>
        <time>2018-05-06T11:05:21Z</time>
      </trkpt>
      <trkpt lat="45.27654" lon="5.79784">
        <ele>1277</ele>
        <time>2018-05-06T11:05:36Z</time>
      </trkpt>
      <trkpt lat="45.2765" lon="5.79784">
        <ele>1277</ele>
        <time>2018-05-06T11:05:50Z</time>
      </trkpt>
      <trkpt lat="45.27649" lon="5.79783">
        <ele>1277</ele>
        <time>2018-05-06T11:06:07Z</time>
      </trkpt>
      <trkpt lat="45.27648" lon="5.79783">
        <ele>1277</ele>
        <time>2018-05-06T11:06:21Z</time>
      </trkpt>
      <trkpt lat="45.27648" lon="5.79782">
        <ele>1277</ele>
        <time>2018-05-06T11:06:51Z</time>
      </trkpt>
      <trkpt lat="45.27648" lon="5.79782">
        <ele>1277</ele>
        <time>2018-05-06T11:07:12Z</time>
      </trkpt>
      <trkpt lat="45.27648" lon="5.79783">
        <ele>1277</ele>
        <time>2018-05-06T11:07:31Z</time>
      </trkpt>
      <trkpt lat="45.27647" lon="5.79781">
        <ele>1277</ele>
        <time>2018-05-06T11:07:50Z</time>
      </trkpt>
      <trkpt lat="45.27646" lon="5.79781">
        <ele>1277</ele>
        <time>2018-05-06T11:08:06Z</time>
      </trkpt>
      <trkpt lat="45.27649" lon="5.79787">
        <ele>1276</ele>
        <time>2018-05-06T11:08:24Z</time>
      </trkpt>
      <trkpt lat="45.27651" lon="5.79791">
        <ele>1276</ele>
        <time>2018-05-06T11:08:29Z</time>
      </trkpt>
      <trkpt lat="45.27652" lon="5.79797">
        <ele>1274</ele>
        <time>2018-05-06T11:08:43Z</time>
      </trkpt>
      <trkpt lat="45.27653" lon="5.79802">
        <ele>1274</ele>
        <time>2018-05-06T11:08:57Z</time>
      </trkpt>
      <trkpt lat="45.27651" lon="5.79796">
        <ele>1275</ele>
        <time>2018-05-06T11:09:12Z</time>
      </trkpt>
      <trkpt lat="45.27652" lon="5.79794">
        <ele>1275</ele>
        <time>2018-05-06T11:09:23Z</time>
      </trkpt>
      <trkpt lat="45.27654" lon="5.79805">
        <ele>1273</ele>
        <time>2018-05-06T11:09:35Z</time>
      </trkpt>
      <trkpt lat="45.27654" lon="5.79818">
        <ele>1271</ele>
        <time>2018-05-06T11:09:47Z</time>
      </trkpt>
      <trkpt lat="45.27655" lon="5.79833">
        <ele>1270</ele>
        <time>2018-05-06T11:09:58Z</time>
      </trkpt>
      <trkpt lat="45.27655" lon="5.7984">
        <ele>1263</ele>
        <time>2018-05-06T11:10:04Z</time>
      </trkpt>
      <trkpt lat="45.27655" lon="5.79846">
        <ele>1263</ele>
        <time>2018-05-06T11:10:10Z</time>
      </trkpt>
      <trkpt lat="45.27656" lon="5.79865">
        <ele>1260</ele>
        <time>2018-05-06T11:10:21Z</time>
      </trkpt>
      <trkpt lat="45.27656" lon="5.7987">
        <ele>1260</ele>
        <time>2018-05-06T11:10:28Z</time>
      </trkpt>
      <trkpt lat="45.27654" lon="5.79875">
        <ele>1259</ele>
        <time>2018-05-06T11:10:33Z</time>
      </trkpt>
      <trkpt lat="45.27653" lon="5.7988">
        <ele>1259</ele>
        <time>2018-05-06T11:10:36Z</time>
      </trkpt>
      <trkpt lat="45.27652" lon="5.79896">
        <ele>1259</ele>
        <time>2018-05-06T11:10:45Z</time>
      </trkpt>
      <trkpt lat="45.27652" lon="5.79907">
        <ele>1260</ele>
        <time>2018-05-06T11:10:51Z</time>
      </trkpt>
      <trkpt lat="45.27652" lon="5.79928">
        <ele>1258</ele>
        <time>2018-05-06T11:11:02Z</time>
      </trkpt>
      <trkpt lat="45.27653" lon="5.79932">
        <ele>1257</ele>
        <time>2018-05-06T11:11:05Z</time>
      </trkpt>
      <trkpt lat="45.27653" lon="5.79935">
        <ele>1257</ele>
        <time>2018-05-06T11:11:07Z</time>
      </trkpt>
      <trkpt lat="45.27653" lon="5.7994">
        <ele>1256</ele>
        <time>2018-05-06T11:11:12Z</time>
      </trkpt>
      <trkpt lat="45.27652" lon="5.79949">
        <ele>1255</ele>
        <time>2018-05-06T11:11:19Z</time>
      </trkpt>
      <trkpt lat="45.27652" lon="5.79969">
        <ele>1255</ele>
        <time>2018-05-06T11:11:31Z</time>
      </trkpt>
      <trkpt lat="45.27657" lon="5.79983">
        <ele>1257</ele>
        <time>2018-05-06T11:11:40Z</time>
      </trkpt>
      <trkpt lat="45.27667" lon="5.79995">
        <ele>1262</ele>
        <time>2018-05-06T11:11:56Z</time>
      </trkpt>
      <trkpt lat="45.27675" lon="5.79999">
        <ele>1269</ele>
        <time>2018-05-06T11:12:07Z</time>
      </trkpt>
      <trkpt lat="45.27684" lon="5.8001">
        <ele>1269</ele>
        <time>2018-05-06T11:12:21Z</time>
      </trkpt>
      <trkpt lat="45.27686" lon="5.80011">
        <ele>1269</ele>
        <time>2018-05-06T11:12:23Z</time>
      </trkpt>
      <trkpt lat="45.27693" lon="5.8002">
        <ele>1271</ele>
        <time>2018-05-06T11:12:33Z</time>
      </trkpt>
      <trkpt lat="45.27701" lon="5.80033">
        <ele>1272</ele>
        <time>2018-05-06T11:12:45Z</time>
      </trkpt>
      <trkpt lat="45.27713" lon="5.80045">
        <ele>1272</ele>
        <time>2018-05-06T11:12:57Z</time>
      </trkpt>
      <trkpt lat="45.27724" lon="5.8005">
        <ele>1273</ele>
        <time>2018-05-06T11:13:11Z</time>
      </trkpt>
      <trkpt lat="45.27732" lon="5.80052">
        <ele>1274</ele>
        <time>2018-05-06T11:13:18Z</time>
      </trkpt>
      <trkpt lat="45.27747" lon="5.80052">
        <ele>1275</ele>
        <time>2018-05-06T11:13:32Z</time>
      </trkpt>
      <trkpt lat="45.27751" lon="5.80052">
        <ele>1287</ele>
        <time>2018-05-06T11:13:36Z</time>
      </trkpt>
      <trkpt lat="45.27762" lon="5.80058">
        <ele>1286</ele>
        <time>2018-05-06T11:13:48Z</time>
      </trkpt>
      <trkpt lat="45.27773" lon="5.80059">
        <ele>1287</ele>
        <time>2018-05-06T11:14:00Z</time>
      </trkpt>
      <trkpt lat="45.27788" lon="5.80074">
        <ele>1286</ele>
        <time>2018-05-06T11:14:12Z</time>
      </trkpt>
      <trkpt lat="45.27796" lon="5.80081">
        <ele>1287</ele>
        <time>2018-05-06T11:14:24Z</time>
      </trkpt>
      <trkpt lat="45.27812" lon="5.80084">
        <ele>1273</ele>
        <time>2018-05-06T11:14:36Z</time>
      </trkpt>
      <trkpt lat="45.27819" lon="5.80088">
        <ele>1275</ele>
        <time>2018-05-06T11:14:45Z</time>
      </trkpt>
      <trkpt lat="45.2783" lon="5.80093">
        <ele>1277</ele>
        <time>2018-05-06T11:14:57Z</time>
      </trkpt>
      <trkpt lat="45.27845" lon="5.80097">
        <ele>1280</ele>
        <time>2018-05-06T11:15:09Z</time>
      </trkpt>
      <trkpt lat="45.27856" lon="5.80101">
        <ele>1279</ele>
        <time>2018-05-06T11:15:20Z</time>
      </trkpt>
      <trkpt lat="45.27866" lon="5.80098">
        <ele>1279</ele>
        <time>2018-05-06T11:15:32Z</time>
      </trkpt>
      <trkpt lat="45.27867" lon="5.80098">
        <ele>1279</ele>
        <time>2018-05-06T11:15:33Z</time>
      </trkpt>
      <trkpt lat="45.2787" lon="5.80096">
        <ele>1280</ele>
        <time>2018-05-06T11:15:36Z</time>
      </trkpt>
      <trkpt lat="45.27874" lon="5.80094">
        <ele>1280</ele>
        <time>2018-05-06T11:15:41Z</time>
      </trkpt>
      <trkpt lat="45.27884" lon="5.801">
        <ele>1280</ele>
        <time>2018-05-06T11:15:53Z</time>
      </trkpt>
      <trkpt lat="45.27887" lon="5.80102">
        <ele>1280</ele>
        <time>2018-05-06T11:15:56Z</time>
      </trkpt>
      <trkpt lat="45.27895" lon="5.80106">
        <ele>1281</ele>
        <time>2018-05-06T11:16:07Z</time>
      </trkpt>
      <trkpt lat="45.27905" lon="5.80115">
        <ele>1280</ele>
        <time>2018-05-06T11:16:21Z</time>
      </trkpt>
      <trkpt lat="45.27908" lon="5.8013">
        <ele>1279</ele>
        <time>2018-05-06T11:16:32Z</time>
      </trkpt>
      <trkpt lat="45.2791" lon="5.80137">
        <ele>1278</ele>
        <time>2018-05-06T11:16:44Z</time>
      </trkpt>
      <trkpt lat="45.27914" lon="5.80139">
        <ele>1279</ele>
        <time>2018-05-06T11:16:56Z</time>
      </trkpt>
      <trkpt lat="45.27915" lon="5.80139">
        <ele>1279</ele>
        <time>2018-05-06T11:17:09Z</time>
      </trkpt>
      <trkpt lat="45.27917" lon="5.80137">
        <ele>1292</ele>
        <time>2018-05-06T11:17:27Z</time>
      </trkpt>
      <trkpt lat="45.27919" lon="5.80138">
        <ele>1292</ele>
        <time>2018-05-06T11:17:45Z</time>
      </trkpt>
      <trkpt lat="45.2792" lon="5.80141">
        <ele>1292</ele>
        <time>2018-05-06T11:17:55Z</time>
      </trkpt>
      <trkpt lat="45.27924" lon="5.80145">
        <ele>1291</ele>
        <time>2018-05-06T11:18:05Z</time>
      </trkpt>
      <trkpt lat="45.27925" lon="5.80147">
        <ele>1291</ele>
        <time>2018-05-06T11:18:08Z</time>
      </trkpt>
      <trkpt lat="45.27928" lon="5.80154">
        <ele>1289</ele>
        <time>2018-05-06T11:18:17Z</time>
      </trkpt>
      <trkpt lat="45.2793" lon="5.80155">
        <ele>1289</ele>
        <time>2018-05-06T11:18:30Z</time>
      </trkpt>
      <trkpt lat="45.27935" lon="5.8016">
        <ele>1290</ele>
        <time>2018-05-06T11:18:41Z</time>
      </trkpt>
      <trkpt lat="45.27948" lon="5.80172">
        <ele>1289</ele>
        <time>2018-05-06T11:18:52Z</time>
      </trkpt>
      <trkpt lat="45.27951" lon="5.80175">
        <ele>1290</ele>
        <time>2018-05-06T11:18:54Z</time>
      </trkpt>
      <trkpt lat="45.27957" lon="5.80185">
        <ele>1291</ele>
        <time>2018-05-06T11:19:00Z</time>
      </trkpt>
      <trkpt lat="45.27977" lon="5.80209">
        <ele>1293</ele>
        <time>2018-05-06T11:19:15Z</time>
      </trkpt>
      <trkpt lat="45.27978" lon="5.80213">
        <ele>1293</ele>
        <time>2018-05-06T11:19:18Z</time>
      </trkpt>
      <trkpt lat="45.27984" lon="5.80221">
        <ele>1293</ele>
        <time>2018-05-06T11:19:27Z</time>
      </trkpt>
      <trkpt lat="45.28055" lon="5.80227">
        <ele>1312</ele>
      </trkpt>
      <trkpt lat="45.28114" lon="5.80251">
        <ele>1323</ele>
      </trkpt>
      <trkpt lat="45.28201" lon="5.80228">
        <ele>1336</ele>
      </trkpt>
      <trkpt lat="45.28261" lon="5.80219">
        <ele>1346</ele>
      </trkpt>
      <trkpt lat="45.28366" lon="5.80177">
        <ele>1364</ele>
      </trkpt>
      <trkpt lat="45.28383" lon="5.80183">
        <ele>1366</ele>
      </trkpt>
      <trkpt lat="45.28388" lon="5.80218">
        <ele>1367</ele>
      </trkpt>
      <trkpt lat="45.28361" lon="5.80346">
        <ele>1376</ele>
      </trkpt>
      <trkpt lat="45.28358" lon="5.80401">
        <ele>1380</ele>
      </trkpt>
      <trkpt lat="45.2831" lon="5.80521">
        <ele>1397</ele>
      </trkpt>
      <trkpt lat="45.28254" lon="5.80621">
        <ele>1398</ele>
      </trkpt>
      <trkpt lat="45.28234" lon="5.80722">
        <ele>1406</ele>
      </trkpt>
      <trkpt lat="45.28208" lon="5.80776">
        <ele>1410</ele>
        <time>2018-05-06T13:26:09Z</time>
      </trkpt>
      <trkpt lat="45.28209" lon="5.80788">
        <ele>1410</ele>
        <time>2018-05-06T13:26:16Z</time>
      </trkpt>
      <trkpt lat="45.28208" lon="5.80789">
        <ele>1410</ele>
        <time>2018-05-06T13:26:17Z</time>
      </trkpt>
      <trkpt lat="45.28204" lon="5.80798">
        <ele>1410</ele>
        <time>2018-05-06T13:26:23Z</time>
      </trkpt>
      <trkpt lat="45.28196" lon="5.80817">
        <ele>1410</ele>
        <time>2018-05-06T13:26:36Z</time>
      </trkpt>
      <trkpt lat="45.28193" lon="5.80823">
        <ele>1410</ele>
        <time>2018-05-06T13:26:39Z</time>
      </trkpt>
      <trkpt lat="45.28192" lon="5.80826">
        <ele>1410</ele>
        <time>2018-05-06T13:26:41Z</time>
      </trkpt>
      <trkpt lat="45.2819" lon="5.80831">
        <ele>1410</ele>
        <time>2018-05-06T13:26:45Z</time>
      </trkpt>
      <trkpt lat="45.28175" lon="5.80855">
        <ele>1413</ele>
        <time>2018-05-06T13:26:57Z</time>
      </trkpt>
      <trkpt lat="45.28166" lon="5.80876">
        <ele>1415</ele>
        <time>2018-05-06T13:27:10Z</time>
      </trkpt>
      <trkpt lat="45.28159" lon="5.80897">
        <ele>1417</ele>
        <time>2018-05-06T13:27:23Z</time>
      </trkpt>
      <trkpt lat="45.28156" lon="5.80906">
        <ele>1418</ele>
        <time>2018-05-06T13:27:29Z</time>
      </trkpt>
      <trkpt lat="45.28155" lon="5.80909">
        <ele>1418</ele>
        <time>2018-05-06T13:27:31Z</time>
      </trkpt>
      <trkpt lat="45.28148" lon="5.80924">
        <ele>1423</ele>
        <time>2018-05-06T13:27:43Z</time>
      </trkpt>
      <trkpt lat="45.28147" lon="5.80932">
        <ele>1423</ele>
        <time>2018-05-06T13:27:48Z</time>
      </trkpt>
      <trkpt lat="45.28148" lon="5.80942">
        <ele>1423</ele>
        <time>2018-05-06T13:27:55Z</time>
      </trkpt>
      <trkpt lat="45.28151" lon="5.80952">
        <ele>1424</ele>
        <time>2018-05-06T13:28:04Z</time>
      </trkpt>
      <trkpt lat="45.28152" lon="5.80962">
        <ele>1424</ele>
        <time>2018-05-06T13:28:16Z</time>
      </trkpt>
      <trkpt lat="45.28153" lon="5.80964">
        <ele>1424</ele>
        <time>2018-05-06T13:28:17Z</time>
      </trkpt>
      <trkpt lat="45.28154" lon="5.80973">
        <ele>1425</ele>
        <time>2018-05-06T13:28:30Z</time>
      </trkpt>
      <trkpt lat="45.28154" lon="5.80973">
        <ele>1425</ele>
        <time>2018-05-06T13:28:34Z</time>
      </trkpt>
      <trkpt lat="45.28156" lon="5.80985">
        <ele>1426</ele>
        <time>2018-05-06T13:28:45Z</time>
      </trkpt>
      <trkpt lat="45.28157" lon="5.80987">
        <ele>1426</ele>
        <time>2018-05-06T13:28:53Z</time>
      </trkpt>
      <trkpt lat="45.28159" lon="5.81002">
        <ele>1430</ele>
        <time>2018-05-06T13:29:04Z</time>
      </trkpt>
      <trkpt lat="45.2816" lon="5.81003">
        <ele>1430</ele>
        <time>2018-05-06T13:29:16Z</time>
      </trkpt>
      <trkpt lat="45.2816" lon="5.81004">
        <ele>1430</ele>
        <time>2018-05-06T13:29:22Z</time>
      </trkpt>
      <trkpt lat="45.2816" lon="5.81003">
        <ele>1430</ele>
        <time>2018-05-06T13:29:29Z</time>
      </trkpt>
      <trkpt lat="45.28164" lon="5.81017">
        <ele>1430</ele>
        <time>2018-05-06T13:29:40Z</time>
      </trkpt>
      <trkpt lat="45.28167" lon="5.81023">
        <ele>1431</ele>
        <time>2018-05-06T13:29:52Z</time>
      </trkpt>
      <trkpt lat="45.2817" lon="5.81031">
        <ele>1429</ele>
        <time>2018-05-06T13:29:57Z</time>
      </trkpt>
      <trkpt lat="45.28178" lon="5.81038">
        <ele>1429</ele>
        <time>2018-05-06T13:30:08Z</time>
      </trkpt>
      <trkpt lat="45.28184" lon="5.81044">
        <ele>1429</ele>
        <time>2018-05-06T13:30:14Z</time>
      </trkpt>
      <trkpt lat="45.28191" lon="5.81048">
        <ele>1428</ele>
        <time>2018-05-06T13:30:20Z</time>
      </trkpt>
      <trkpt lat="45.28206" lon="5.81064">
        <ele>1428</ele>
        <time>2018-05-06T13:30:35Z</time>
      </trkpt>
      <trkpt lat="45.28207" lon="5.81065">
        <ele>1428</ele>
        <time>2018-05-06T13:30:36Z</time>
      </trkpt>
      <trkpt lat="45.28211" lon="5.8107">
        <ele>1428</ele>
        <time>2018-05-06T13:30:40Z</time>
      </trkpt>
      <trkpt lat="45.28223" lon="5.8108">
        <ele>1427</ele>
        <time>2018-05-06T13:30:51Z</time>
      </trkpt>
      <trkpt lat="45.28228" lon="5.81082">
        <ele>1426</ele>
        <time>2018-05-06T13:30:56Z</time>
      </trkpt>
      <trkpt lat="45.28244" lon="5.81093">
        <ele>1426</ele>
        <time>2018-05-06T13:31:10Z</time>
      </trkpt>
      <trkpt lat="45.28246" lon="5.81093">
        <ele>1426</ele>
        <time>2018-05-06T13:31:11Z</time>
      </trkpt>
      <trkpt lat="45.28258" lon="5.81099">
        <ele>1423</ele>
        <time>2018-05-06T13:31:21Z</time>
      </trkpt>
      <trkpt lat="45.28264" lon="5.81103">
        <ele>1423</ele>
        <time>2018-05-06T13:31:25Z</time>
      </trkpt>
      <trkpt lat="45.28274" lon="5.8111">
        <ele>1423</ele>
        <time>2018-05-06T13:31:34Z</time>
      </trkpt>
      <trkpt lat="45.2829" lon="5.81118">
        <ele>1423</ele>
        <time>2018-05-06T13:31:48Z</time>
      </trkpt>
      <trkpt lat="45.28291" lon="5.81119">
        <ele>1423</ele>
        <time>2018-05-06T13:31:49Z</time>
      </trkpt>
      <trkpt lat="45.28303" lon="5.81126">
        <ele>1423</ele>
        <time>2018-05-06T13:32:01Z</time>
      </trkpt>
      <trkpt lat="45.28305" lon="5.81127">
        <ele>1423</ele>
        <time>2018-05-06T13:32:03Z</time>
      </trkpt>
      <trkpt lat="45.28308" lon="5.81127">
        <ele>1423</ele>
        <time>2018-05-06T13:32:05Z</time>
      </trkpt>
      <trkpt lat="45.28321" lon="5.8113">
        <ele>1422</ele>
        <time>2018-05-06T13:32:16Z</time>
      </trkpt>
      <trkpt lat="45.28329" lon="5.8113">
        <ele>1422</ele>
        <time>2018-05-06T13:32:22Z</time>
      </trkpt>
      <trkpt lat="45.28342" lon="5.81129">
        <ele>1417</ele>
        <time>2018-05-06T13:32:32Z</time>
      </trkpt>
      <trkpt lat="45.28346" lon="5.81131">
        <ele>1417</ele>
        <time>2018-05-06T13:32:36Z</time>
      </trkpt>
      <trkpt lat="45.28351" lon="5.81132">
        <ele>1416</ele>
        <time>2018-05-06T13:32:40Z</time>
      </trkpt>
      <trkpt lat="45.28362" lon="5.81131">
        <ele>1416</ele>
        <time>2018-05-06T13:32:48Z</time>
      </trkpt>
      <trkpt lat="45.28375" lon="5.81129">
        <ele>1415</ele>
        <time>2018-05-06T13:33:00Z</time>
      </trkpt>
      <trkpt lat="45.28388" lon="5.81135">
        <ele>1414</ele>
        <time>2018-05-06T13:33:11Z</time>
      </trkpt>
      <trkpt lat="45.28394" lon="5.81142">
        <ele>1414</ele>
        <time>2018-05-06T13:33:19Z</time>
      </trkpt>
      <trkpt lat="45.28401" lon="5.81145">
        <ele>1414</ele>
        <time>2018-05-06T13:33:26Z</time>
      </trkpt>
      <trkpt lat="45.28407" lon="5.81146">
        <ele>1414</ele>
        <time>2018-05-06T13:33:31Z</time>
      </trkpt>
      <trkpt lat="45.28418" lon="5.81143">
        <ele>1407</ele>
        <time>2018-05-06T13:33:41Z</time>
      </trkpt>
      <trkpt lat="45.28425" lon="5.81146">
        <ele>1407</ele>
        <time>2018-05-06T13:33:49Z</time>
      </trkpt>
      <trkpt lat="45.28431" lon="5.81155">
        <ele>1408</ele>
        <time>2018-05-06T13:33:56Z</time>
      </trkpt>
      <trkpt lat="45.28433" lon="5.81158">
        <ele>1408</ele>
        <time>2018-05-06T13:33:58Z</time>
      </trkpt>
      <trkpt lat="45.28433" lon="5.81166">
        <ele>1408</ele>
        <time>2018-05-06T13:34:08Z</time>
      </trkpt>
      <trkpt lat="45.28432" lon="5.81165">
        <ele>1409</ele>
        <time>2018-05-06T13:34:25Z</time>
      </trkpt>
      <trkpt lat="45.28431" lon="5.81166">
        <ele>1409</ele>
        <time>2018-05-06T13:34:52Z</time>
      </trkpt>
      <trkpt lat="45.28431" lon="5.81166">
        <ele>1409</ele>
        <time>2018-05-06T13:35:09Z</time>
      </trkpt>
      <trkpt lat="45.28431" lon="5.81166">
        <ele>1409</ele>
        <time>2018-05-06T13:35:20Z</time>
      </trkpt>
      <trkpt lat="45.28431" lon="5.81165">
        <ele>1409</ele>
        <time>2018-05-06T13:35:33Z</time>
      </trkpt>
      <trkpt lat="45.28432" lon="5.81162">
        <ele>1408</ele>
        <time>2018-05-06T13:35:38Z</time>
      </trkpt>
      <trkpt lat="45.28433" lon="5.81164">
        <ele>1408</ele>
        <time>2018-05-06T13:35:40Z</time>
      </trkpt>
      <trkpt lat="45.28432" lon="5.81166">
        <ele>1409</ele>
        <time>2018-05-06T13:35:54Z</time>
      </trkpt>
      <trkpt lat="45.28433" lon="5.81169">
        <ele>1410</ele>
        <time>2018-05-06T13:36:06Z</time>
      </trkpt>
      <trkpt lat="45.2843" lon="5.81175">
        <ele>1410</ele>
        <time>2018-05-06T13:36:17Z</time>
      </trkpt>
      <trkpt lat="45.28425" lon="5.81185">
        <ele>1409</ele>
        <time>2018-05-06T13:36:30Z</time>
      </trkpt>
      <trkpt lat="45.28423" lon="5.81192">
        <ele>1408</ele>
        <time>2018-05-06T13:36:39Z</time>
      </trkpt>
      <trkpt lat="45.28419" lon="5.81207">
        <ele>1407</ele>
        <time>2018-05-06T13:36:50Z</time>
      </trkpt>
      <trkpt lat="45.28419" lon="5.81209">
        <ele>1407</ele>
        <time>2018-05-06T13:36:51Z</time>
      </trkpt>
      <trkpt lat="45.28415" lon="5.81214">
        <ele>1414</ele>
        <time>2018-05-06T13:36:55Z</time>
      </trkpt>
      <trkpt lat="45.28407" lon="5.81224">
        <ele>1414</ele>
        <time>2018-05-06T13:37:03Z</time>
      </trkpt>
      <trkpt lat="45.28403" lon="5.81237">
        <ele>1413</ele>
        <time>2018-05-06T13:37:13Z</time>
      </trkpt>
      <trkpt lat="45.28402" lon="5.81242">
        <ele>1412</ele>
        <time>2018-05-06T13:37:16Z</time>
      </trkpt>
      <trkpt lat="45.28398" lon="5.81248">
        <ele>1413</ele>
        <time>2018-05-06T13:37:21Z</time>
      </trkpt>
      <trkpt lat="45.28396" lon="5.81264">
        <ele>1411</ele>
        <time>2018-05-06T13:37:34Z</time>
      </trkpt>
      <trkpt lat="45.28395" lon="5.81271">
        <ele>1411</ele>
        <time>2018-05-06T13:37:41Z</time>
      </trkpt>
      <trkpt lat="45.28394" lon="5.81283">
        <ele>1411</ele>
        <time>2018-05-06T13:37:48Z</time>
      </trkpt>
      <trkpt lat="45.28396" lon="5.81289">
        <ele>1411</ele>
        <time>2018-05-06T13:37:51Z</time>
      </trkpt>
      <trkpt lat="45.28398" lon="5.81293">
        <ele>1411</ele>
        <time>2018-05-06T13:37:53Z</time>
      </trkpt>
      <trkpt lat="45.28394" lon="5.81295">
        <ele>1411</ele>
        <time>2018-05-06T13:37:56Z</time>
      </trkpt>
      <trkpt lat="45.28393" lon="5.81309">
        <ele>1410</ele>
        <time>2018-05-06T13:38:06Z</time>
      </trkpt>
      <trkpt lat="45.2839" lon="5.81316">
        <ele>1410</ele>
        <time>2018-05-06T13:38:12Z</time>
      </trkpt>
      <trkpt lat="45.28386" lon="5.81337">
        <ele>1403</ele>
        <time>2018-05-06T13:38:24Z</time>
      </trkpt>
      <trkpt lat="45.28382" lon="5.81346">
        <ele>1404</ele>
        <time>2018-05-06T13:38:30Z</time>
      </trkpt>
      <trkpt lat="45.28379" lon="5.81349">
        <ele>1404</ele>
        <time>2018-05-06T13:38:33Z</time>
      </trkpt>
      <trkpt lat="45.28379" lon="5.81365">
        <ele>1403</ele>
        <time>2018-05-06T13:38:44Z</time>
      </trkpt>
      <trkpt lat="45.28377" lon="5.81369">
        <ele>1403</ele>
        <time>2018-05-06T13:38:52Z</time>
      </trkpt>
      <trkpt lat="45.28373" lon="5.81383">
        <ele>1402</ele>
        <time>2018-05-06T13:39:02Z</time>
      </trkpt>
      <trkpt lat="45.28371" lon="5.81387">
        <ele>1402</ele>
        <time>2018-05-06T13:39:06Z</time>
      </trkpt>
      <trkpt lat="45.28364" lon="5.81398">
        <ele>1402</ele>
        <time>2018-05-06T13:39:16Z</time>
      </trkpt>
      <trkpt lat="45.28362" lon="5.81401">
        <ele>1402</ele>
        <time>2018-05-06T13:39:18Z</time>
      </trkpt>
      <trkpt lat="45.2835" lon="5.81414">
        <ele>1404</ele>
        <time>2018-05-06T13:39:29Z</time>
      </trkpt>
      <trkpt lat="45.28348" lon="5.81423">
        <ele>1395</ele>
        <time>2018-05-06T13:39:36Z</time>
      </trkpt>
      <trkpt lat="45.28345" lon="5.81433">
        <ele>1393</ele>
        <time>2018-05-06T13:39:46Z</time>
      </trkpt>
      <trkpt lat="45.2834" lon="5.81444">
        <ele>1391</ele>
        <time>2018-05-06T13:40:01Z</time>
      </trkpt>
      <trkpt lat="45.28332" lon="5.81449">
        <ele>1403</ele>
        <time>2018-05-06T13:40:13Z</time>
      </trkpt>
      <trkpt lat="45.28321" lon="5.81459">
        <ele>1403</ele>
        <time>2018-05-06T13:40:24Z</time>
      </trkpt>
      <trkpt lat="45.28308" lon="5.81463">
        <ele>1403</ele>
        <time>2018-05-06T13:40:37Z</time>
      </trkpt>
      <trkpt lat="45.28305" lon="5.81471">
        <ele>1402</ele>
        <time>2018-05-06T13:40:47Z</time>
      </trkpt>
      <trkpt lat="45.28302" lon="5.81479">
        <ele>1402</ele>
        <time>2018-05-06T13:40:58Z</time>
      </trkpt>
      <trkpt lat="45.283" lon="5.81482">
        <ele>1401</ele>
        <time>2018-05-06T13:41:09Z</time>
      </trkpt>
      <trkpt lat="45.28299" lon="5.81482">
        <ele>1402</ele>
        <time>2018-05-06T13:41:23Z</time>
      </trkpt>
      <trkpt lat="45.28295" lon="5.81482">
        <ele>1402</ele>
        <time>2018-05-06T13:41:38Z</time>
      </trkpt>
      <trkpt lat="45.28292" lon="5.81486">
        <ele>1403</ele>
        <time>2018-05-06T13:41:42Z</time>
      </trkpt>
      <trkpt lat="45.28273" lon="5.81498">
        <ele>1404</ele>
        <time>2018-05-06T13:41:55Z</time>
      </trkpt>
      <trkpt lat="45.28273" lon="5.815">
        <ele>1404</ele>
        <time>2018-05-06T13:41:56Z</time>
      </trkpt>
      <trkpt lat="45.28275" lon="5.81504">
        <ele>1395</ele>
        <time>2018-05-06T13:42:08Z</time>
      </trkpt>
      <trkpt lat="45.28278" lon="5.81497">
        <ele>1404</ele>
        <time>2018-05-06T13:42:29Z</time>
      </trkpt>
      <trkpt lat="45.28279" lon="5.81496">
        <ele>1404</ele>
        <time>2018-05-06T13:42:50Z</time>
      </trkpt>
      <trkpt lat="45.28279" lon="5.81503">
        <ele>1393</ele>
        <time>2018-05-06T13:43:00Z</time>
      </trkpt>
      <trkpt lat="45.28285" lon="5.81512">
        <ele>1392</ele>
        <time>2018-05-06T13:43:09Z</time>
      </trkpt>
      <trkpt lat="45.2828" lon="5.81519">
        <ele>1392</ele>
        <time>2018-05-06T13:43:15Z</time>
      </trkpt>
      <trkpt lat="45.28278" lon="5.81523">
        <ele>1392</ele>
        <time>2018-05-06T13:43:18Z</time>
      </trkpt>
      <trkpt lat="45.28271" lon="5.81532">
        <ele>1392</ele>
        <time>2018-05-06T13:43:30Z</time>
      </trkpt>
      <trkpt lat="45.2827" lon="5.81534">
        <ele>1392</ele>
        <time>2018-05-06T13:43:32Z</time>
      </trkpt>
      <trkpt lat="45.28268" lon="5.81543">
        <ele>1391</ele>
        <time>2018-05-06T13:43:43Z</time>
      </trkpt>
      <trkpt lat="45.28267" lon="5.81543">
        <ele>1391</ele>
        <time>2018-05-06T13:43:44Z</time>
      </trkpt>
      <trkpt lat="45.28262" lon="5.81547">
        <ele>1391</ele>
        <time>2018-05-06T13:43:49Z</time>
      </trkpt>
      <trkpt lat="45.28255" lon="5.81551">
        <ele>1392</ele>
        <time>2018-05-06T13:43:56Z</time>
      </trkpt>
      <trkpt lat="45.28251" lon="5.81566">
        <ele>1392</ele>
        <time>2018-05-06T13:44:06Z</time>
      </trkpt>
      <trkpt lat="45.28248" lon="5.81576">
        <ele>1398</ele>
        <time>2018-05-06T13:44:16Z</time>
      </trkpt>
      <trkpt lat="45.28248" lon="5.81579">
        <ele>1397</ele>
        <time>2018-05-06T13:44:22Z</time>
      </trkpt>
      <trkpt lat="45.28249" lon="5.81597">
        <ele>1400</ele>
        <time>2018-05-06T13:44:33Z</time>
      </trkpt>
      <trkpt lat="45.28249" lon="5.816">
        <ele>1401</ele>
        <time>2018-05-06T13:44:34Z</time>
      </trkpt>
      <trkpt lat="45.28246" lon="5.81618">
        <ele>1405</ele>
        <time>2018-05-06T13:44:40Z</time>
      </trkpt>
      <trkpt lat="45.28245" lon="5.81622">
        <ele>1405</ele>
        <time>2018-05-06T13:44:42Z</time>
      </trkpt>
      <trkpt lat="45.28247" lon="5.81632">
        <ele>1405</ele>
        <time>2018-05-06T13:44:49Z</time>
      </trkpt>
      <trkpt lat="45.28255" lon="5.8165">
        <ele>1392</ele>
        <time>2018-05-06T13:44:59Z</time>
      </trkpt>
      <trkpt lat="45.28258" lon="5.81659">
        <ele>1394</ele>
        <time>2018-05-06T13:45:10Z</time>
      </trkpt>
      <trkpt lat="45.28257" lon="5.81665">
        <ele>1395</ele>
        <time>2018-05-06T13:45:17Z</time>
      </trkpt>
      <trkpt lat="45.28261" lon="5.81665">
        <ele>1394</ele>
        <time>2018-05-06T13:45:21Z</time>
      </trkpt>
      <trkpt lat="45.28272" lon="5.81679">
        <ele>1398</ele>
        <time>2018-05-06T13:45:34Z</time>
      </trkpt>
      <trkpt lat="45.28284" lon="5.81693">
        <ele>1397</ele>
        <time>2018-05-06T13:45:49Z</time>
      </trkpt>
      <trkpt lat="45.28294" lon="5.81701">
        <ele>1397</ele>
        <time>2018-05-06T13:46:01Z</time>
      </trkpt>
      <trkpt lat="45.28304" lon="5.81709">
        <ele>1397</ele>
        <time>2018-05-06T13:46:13Z</time>
      </trkpt>
      <trkpt lat="45.28316" lon="5.81718">
        <ele>1398</ele>
        <time>2018-05-06T13:46:25Z</time>
      </trkpt>
      <trkpt lat="45.28329" lon="5.81724">
        <ele>1399</ele>
        <time>2018-05-06T13:46:35Z</time>
      </trkpt>
      <trkpt lat="45.28335" lon="5.81726">
        <ele>1390</ele>
        <time>2018-05-06T13:46:46Z</time>
      </trkpt>
      <trkpt lat="45.28338" lon="5.8173">
        <ele>1391</ele>
        <time>2018-05-06T13:46:57Z</time>
      </trkpt>
      <trkpt lat="45.28348" lon="5.81733">
        <ele>1390</ele>
        <time>2018-05-06T13:47:11Z</time>
      </trkpt>
      <trkpt lat="45.28355" lon="5.81739">
        <ele>1389</ele>
        <time>2018-05-06T13:47:25Z</time>
      </trkpt>
      <trkpt lat="45.2838" lon="5.8175">
        <ele>1385</ele>
        <time>2018-05-06T13:47:35Z</time>
      </trkpt>
      <trkpt lat="45.28397" lon="5.81755">
        <ele>1395</ele>
        <time>2018-05-06T13:47:49Z</time>
      </trkpt>
      <trkpt lat="45.28402" lon="5.81755">
        <ele>1394</ele>
        <time>2018-05-06T13:48:08Z</time>
      </trkpt>
      <trkpt lat="45.28404" lon="5.81756">
        <ele>1393</ele>
        <time>2018-05-06T13:48:25Z</time>
      </trkpt>
      <trkpt lat="45.28404" lon="5.81756">
        <ele>1393</ele>
        <time>2018-05-06T13:48:33Z</time>
      </trkpt>
      <trkpt lat="45.28408" lon="5.81769">
        <ele>1396</ele>
        <time>2018-05-06T13:48:46Z</time>
      </trkpt>
      <trkpt lat="45.28409" lon="5.81783">
        <ele>1400</ele>
        <time>2018-05-06T13:49:01Z</time>
      </trkpt>
      <trkpt lat="45.28413" lon="5.81787">
        <ele>1401</ele>
        <time>2018-05-06T13:49:15Z</time>
      </trkpt>
      <trkpt lat="45.28416" lon="5.81794">
        <ele>1402</ele>
        <time>2018-05-06T13:49:20Z</time>
      </trkpt>
      <trkpt lat="45.28431" lon="5.81807">
        <ele>1394</ele>
        <time>2018-05-06T13:49:33Z</time>
      </trkpt>
      <trkpt lat="45.28435" lon="5.8182">
        <ele>1397</ele>
        <time>2018-05-06T13:49:46Z</time>
      </trkpt>
      <trkpt lat="45.28452" lon="5.81828">
        <ele>1394</ele>
        <time>2018-05-06T13:49:53Z</time>
      </trkpt>
      <trkpt lat="45.28458" lon="5.81826">
        <ele>1393</ele>
        <time>2018-05-06T13:50:01Z</time>
      </trkpt>
      <trkpt lat="45.28473" lon="5.81836">
        <ele>1405</ele>
        <time>2018-05-06T13:50:14Z</time>
      </trkpt>
      <trkpt lat="45.28476" lon="5.81841">
        <ele>1405</ele>
        <time>2018-05-06T13:50:26Z</time>
      </trkpt>
      <trkpt lat="45.2848" lon="5.81843">
        <ele>1404</ele>
        <time>2018-05-06T13:50:41Z</time>
      </trkpt>
      <trkpt lat="45.28481" lon="5.81843">
        <ele>1404</ele>
        <time>2018-05-06T13:50:44Z</time>
      </trkpt>
      <trkpt lat="45.28481" lon="5.81843">
        <ele>1404</ele>
        <time>2018-05-06T13:50:46Z</time>
      </trkpt>
      <trkpt lat="45.28497" lon="5.8185">
        <ele>1403</ele>
        <time>2018-05-06T13:50:57Z</time>
      </trkpt>
      <trkpt lat="45.28502" lon="5.81851">
        <ele>1398</ele>
        <time>2018-05-06T13:51:13Z</time>
      </trkpt>
      <trkpt lat="45.28503" lon="5.81853">
        <ele>1398</ele>
        <time>2018-05-06T13:51:18Z</time>
      </trkpt>
      <trkpt lat="45.2852" lon="5.81857">
        <ele>1399</ele>
        <time>2018-05-06T13:51:24Z</time>
      </trkpt>
      <trkpt lat="45.28525" lon="5.81859">
        <ele>1399</ele>
        <time>2018-05-06T13:51:29Z</time>
      </trkpt>
      <trkpt lat="45.28542" lon="5.81866">
        <ele>1399</ele>
        <time>2018-05-06T13:51:36Z</time>
      </trkpt>
      <trkpt lat="45.28555" lon="5.81871">
        <ele>1399</ele>
        <time>2018-05-06T13:51:42Z</time>
      </trkpt>
      <trkpt lat="45.28576" lon="5.81877">
        <ele>1399</ele>
        <time>2018-05-06T13:51:58Z</time>
      </trkpt>
      <trkpt lat="45.2859" lon="5.81881">
        <ele>1391</ele>
        <time>2018-05-06T13:52:13Z</time>
      </trkpt>
      <trkpt lat="45.28593" lon="5.81882">
        <ele>1391</ele>
        <time>2018-05-06T13:52:18Z</time>
      </trkpt>
      <trkpt lat="45.28599" lon="5.81886">
        <ele>1392</ele>
        <time>2018-05-06T13:52:23Z</time>
      </trkpt>
      <trkpt lat="45.28607" lon="5.8189">
        <ele>1392</ele>
        <time>2018-05-06T13:52:30Z</time>
      </trkpt>
      <trkpt lat="45.28614" lon="5.81892">
        <ele>1391</ele>
        <time>2018-05-06T13:52:35Z</time>
      </trkpt>
      <trkpt lat="45.28626" lon="5.81897">
        <ele>1390</ele>
        <time>2018-05-06T13:52:48Z</time>
      </trkpt>
      <trkpt lat="45.28638" lon="5.81901">
        <ele>1389</ele>
        <time>2018-05-06T13:53:03Z</time>
      </trkpt>
      <trkpt lat="45.28647" lon="5.81904">
        <ele>1389</ele>
        <time>2018-05-06T13:53:15Z</time>
      </trkpt>
      <trkpt lat="45.28656" lon="5.81909">
        <ele>1390</ele>
        <time>2018-05-06T13:53:24Z</time>
      </trkpt>
      <trkpt lat="45.28666" lon="5.81915">
        <ele>1392</ele>
        <time>2018-05-06T13:53:33Z</time>
      </trkpt>
      <trkpt lat="45.28677" lon="5.8192">
        <ele>1394</ele>
        <time>2018-05-06T13:53:45Z</time>
      </trkpt>
      <trkpt lat="45.28683" lon="5.81924">
        <ele>1395</ele>
        <time>2018-05-06T13:53:59Z</time>
      </trkpt>
      <trkpt lat="45.28685" lon="5.81925">
        <ele>1395</ele>
        <time>2018-05-06T13:54:08Z</time>
      </trkpt>
      <trkpt lat="45.28685" lon="5.81924">
        <ele>1395</ele>
        <time>2018-05-06T13:54:13Z</time>
      </trkpt>
      <trkpt lat="45.28688" lon="5.81931">
        <ele>1395</ele>
        <time>2018-05-06T13:54:27Z</time>
      </trkpt>
      <trkpt lat="45.2869" lon="5.81939">
        <ele>1396</ele>
        <time>2018-05-06T13:54:41Z</time>
      </trkpt>
      <trkpt lat="45.28694" lon="5.81944">
        <ele>1397</ele>
        <time>2018-05-06T13:54:54Z</time>
      </trkpt>
      <trkpt lat="45.28706" lon="5.8195">
        <ele>1397</ele>
        <time>2018-05-06T13:55:06Z</time>
      </trkpt>
      <trkpt lat="45.28719" lon="5.81958">
        <ele>1397</ele>
        <time>2018-05-06T13:55:20Z</time>
      </trkpt>
      <trkpt lat="45.28729" lon="5.81962">
        <ele>1397</ele>
        <time>2018-05-06T13:55:26Z</time>
      </trkpt>
      <trkpt lat="45.28738" lon="5.8197">
        <ele>1399</ele>
        <time>2018-05-06T13:55:37Z</time>
      </trkpt>
      <trkpt lat="45.28754" lon="5.81973">
        <ele>1398</ele>
        <time>2018-05-06T13:55:45Z</time>
      </trkpt>
      <trkpt lat="45.28764" lon="5.81974">
        <ele>1398</ele>
        <time>2018-05-06T13:55:54Z</time>
      </trkpt>
      <trkpt lat="45.28767" lon="5.81974">
        <ele>1398</ele>
        <time>2018-05-06T13:56:01Z</time>
      </trkpt>
      <trkpt lat="45.28776" lon="5.8197">
        <ele>1397</ele>
        <time>2018-05-06T13:56:09Z</time>
      </trkpt>
      <trkpt lat="45.28785" lon="5.81969">
        <ele>1397</ele>
        <time>2018-05-06T13:56:25Z</time>
      </trkpt>
      <trkpt lat="45.2879" lon="5.8197">
        <ele>1397</ele>
        <time>2018-05-06T13:56:37Z</time>
      </trkpt>
      <trkpt lat="45.2879" lon="5.81965">
        <ele>1397</ele>
        <time>2018-05-06T13:56:52Z</time>
      </trkpt>
      <trkpt lat="45.2879" lon="5.81964">
        <ele>1396</ele>
        <time>2018-05-06T13:57:13Z</time>
      </trkpt>
      <trkpt lat="45.28791" lon="5.81964">
        <ele>1396</ele>
        <time>2018-05-06T13:57:27Z</time>
      </trkpt>
      <trkpt lat="45.2879" lon="5.81964">
        <ele>1396</ele>
        <time>2018-05-06T13:57:35Z</time>
      </trkpt>
      <trkpt lat="45.288" lon="5.81957">
        <ele>1396</ele>
        <time>2018-05-06T13:57:44Z</time>
      </trkpt>
      <trkpt lat="45.28806" lon="5.81957">
        <ele>1396</ele>
        <time>2018-05-06T13:57:49Z</time>
      </trkpt>
      <trkpt lat="45.28811" lon="5.81955">
        <ele>1395</ele>
        <time>2018-05-06T13:57:53Z</time>
      </trkpt>
      <trkpt lat="45.28818" lon="5.81951">
        <ele>1395</ele>
        <time>2018-05-06T13:58:00Z</time>
      </trkpt>
      <trkpt lat="45.28828" lon="5.81946">
        <ele>1393</ele>
        <time>2018-05-06T13:58:13Z</time>
      </trkpt>
      <trkpt lat="45.28827" lon="5.81948">
        <ele>1394</ele>
        <time>2018-05-06T13:58:29Z</time>
      </trkpt>
      <trkpt lat="45.28827" lon="5.81948">
        <ele>1394</ele>
        <time>2018-05-06T13:58:32Z</time>
      </trkpt>
      <trkpt lat="45.28935" lon="5.81998">
        <ele>1399</ele>
      </trkpt>
      <trkpt lat="45.28952" lon="5.82026">
        <ele>1412</ele>
      </trkpt>
      <trkpt lat="45.28952" lon="5.82057">
        <ele>1416</ele>
      </trkpt>
      <trkpt lat="45.28965" lon="5.82079">
        <ele>1417</ele>
      </trkpt>
      <trkpt lat="45.28996" lon="5.82081">
        <ele>1420</ele>
      </trkpt>
      <trkpt lat="45.29029" lon="5.82057">
        <ele>1415</ele>
      </trkpt>
      <trkpt lat="45.29052" lon="5.82028">
        <ele>1412</ele>
      </trkpt>
      <trkpt lat="45.29082" lon="5.82012">
        <ele>1409</ele>
      </trkpt>
      <trkpt lat="45.29101" lon="5.82035">
        <ele>1416</ele>
      </trkpt>
      <trkpt lat="45.29277" lon="5.82069">
        <ele>1422</ele>
      </trkpt>
      <trkpt lat="45.29304" lon="5.82065">
        <ele>1421</ele>
      </trkpt>
      <trkpt lat="45.29373" lon="5.82072">
        <ele>1418</ele>
      </trkpt>
      <trkpt lat="45.29588" lon="5.82086">
        <ele>1421</ele>
      </trkpt>
      <trkpt lat="45.29632" lon="5.82072">
        <ele>1408</ele>
      </trkpt>
      <trkpt lat="45.29667" lon="5.82101">
        <ele>1421</ele>
      </trkpt>
      <trkpt lat="45.298" lon="5.82113">
        <ele>1417</ele>
      </trkpt>
      <trkpt lat="45.29976" lon="5.82062">
        <ele>1373</ele>
      </trkpt>
      <trkpt lat="45.30041" lon="5.82151">
        <ele>1371</ele>
      </trkpt>
      <trkpt lat="45.301" lon="5.82185">
        <ele>1355</ele>
      </trkpt>
      <trkpt lat="45.30136" lon="5.8224">
        <ele>1358</ele>
      </trkpt>
      <trkpt lat="45.30208" lon="5.82254">
        <ele>1367</ele>
      </trkpt>
      <trkpt lat="45.30258" lon="5.82225">
        <ele>1330</ele>
      </trkpt>
      <trkpt lat="45.30311" lon="5.82234">
        <ele>1326</ele>
      </trkpt>
      <trkpt lat="45.30339" lon="5.82305">
        <ele>1341</ele>
      </trkpt>
      <trkpt lat="45.30404" lon="5.82343">
        <ele>1334</ele>
      </trkpt>
      <trkpt lat="45.30404" lon="5.82439">
        <ele>1338</ele>
      </trkpt>
      <trkpt lat="45.30436" lon="5.82501">
        <ele>1318</ele>
      </trkpt>
      <trkpt lat="45.30406" lon="5.82602">
        <ele>1328</ele>
      </trkpt>
      <trkpt lat="45.30439" lon="5.82696">
        <ele>1315</ele>
      </trkpt>
      <trkpt lat="45.3035" lon="5.82841">
        <ele>1342</ele>
      </trkpt>
      <trkpt lat="45.30348" lon="5.82891">
        <ele>1344</ele>
      </trkpt>
      <trkpt lat="45.30383" lon="5.82941">
        <ele>1347</ele>
      </trkpt>
      <trkpt lat="45.30457" lon="5.82989">
        <ele>1350</ele>
      </trkpt>
      <trkpt lat="45.30388" lon="5.83272">
        <ele>1391</ele>
      </trkpt>
      <trkpt lat="45.30339" lon="5.83323">
        <ele>1389</ele>
      </trkpt>
      <trkpt lat="45.30265" lon="5.83397">
        <ele>1397</ele>
      </trkpt>
      <trkpt lat="45.30216" lon="5.83431">
        <ele>1408</ele>
      </trkpt>
      <trkpt lat="45.30178" lon="5.83402">
        <ele>1402</ele>
      </trkpt>
      <trkpt lat="45.3017" lon="5.83418">
        <ele>1406</ele>
        <time>2018-05-06T15:20:22Z</time>
      </trkpt>
      <trkpt lat="45.30173" lon="5.83414">
        <ele>1404</ele>
        <time>2018-05-06T15:20:23Z</time>
      </trkpt>
      <trkpt lat="45.30174" lon="5.83413">
        <ele>1403</ele>
        <time>2018-05-06T15:20:36Z</time>
      </trkpt>
      <trkpt lat="45.30181" lon="5.83414">
        <ele>1402</ele>
        <time>2018-05-06T15:21:00Z</time>
      </trkpt>
      <trkpt lat="45.30177" lon="5.83418">
        <ele>1407</ele>
        <time>2018-05-06T15:21:20Z</time>
      </trkpt>
      <trkpt lat="45.30177" lon="5.83416">
        <ele>1403</ele>
        <time>2018-05-06T15:21:40Z</time>
      </trkpt>
      <trkpt lat="45.30185" lon="5.83418">
        <ele>1408</ele>
        <time>2018-05-06T15:22:23Z</time>
      </trkpt>
      <trkpt lat="45.30191" lon="5.83424">
        <ele>1408</ele>
        <time>2018-05-06T15:22:30Z</time>
      </trkpt>
      <trkpt lat="45.30204" lon="5.83438">
        <ele>1409</ele>
        <time>2018-05-06T15:22:44Z</time>
      </trkpt>
      <trkpt lat="45.30215" lon="5.83442">
        <ele>1409</ele>
        <time>2018-05-06T15:22:53Z</time>
      </trkpt>
      <trkpt lat="45.30237" lon="5.83429">
        <ele>1404</ele>
        <time>2018-05-06T15:23:07Z</time>
      </trkpt>
      <trkpt lat="45.30253" lon="5.83417">
        <ele>1399</ele>
        <time>2018-05-06T15:23:20Z</time>
      </trkpt>
      <trkpt lat="45.30271" lon="5.83404">
        <ele>1397</ele>
        <time>2018-05-06T15:23:34Z</time>
      </trkpt>
      <trkpt lat="45.3028" lon="5.83392">
        <ele>1397</ele>
        <time>2018-05-06T15:23:44Z</time>
      </trkpt>
      <trkpt lat="45.30279" lon="5.8339">
        <ele>1397</ele>
        <time>2018-05-06T15:23:46Z</time>
      </trkpt>
      <trkpt lat="45.30289" lon="5.83379">
        <ele>1396</ele>
        <time>2018-05-06T15:23:54Z</time>
      </trkpt>
      <trkpt lat="45.30291" lon="5.83373">
        <ele>1396</ele>
        <time>2018-05-06T15:23:58Z</time>
      </trkpt>
      <trkpt lat="45.30298" lon="5.83365">
        <ele>1395</ele>
        <time>2018-05-06T15:24:03Z</time>
      </trkpt>
      <trkpt lat="45.30304" lon="5.83361">
        <ele>1395</ele>
        <time>2018-05-06T15:24:06Z</time>
      </trkpt>
      <trkpt lat="45.30311" lon="5.83358">
        <ele>1395</ele>
        <time>2018-05-06T15:24:10Z</time>
      </trkpt>
      <trkpt lat="45.30318" lon="5.83347">
        <ele>1393</ele>
        <time>2018-05-06T15:24:17Z</time>
      </trkpt>
      <trkpt lat="45.3032" lon="5.83345">
        <ele>1392</ele>
        <time>2018-05-06T15:24:19Z</time>
      </trkpt>
      <trkpt lat="45.30329" lon="5.83342">
        <ele>1391</ele>
        <time>2018-05-06T15:24:26Z</time>
      </trkpt>
      <trkpt lat="45.30334" lon="5.83339">
        <ele>1394</ele>
        <time>2018-05-06T15:24:30Z</time>
      </trkpt>
      <trkpt lat="45.30348" lon="5.83329">
        <ele>1390</ele>
        <time>2018-05-06T15:24:42Z</time>
      </trkpt>
      <trkpt lat="45.30353" lon="5.83325">
        <ele>1391</ele>
        <time>2018-05-06T15:24:46Z</time>
      </trkpt>
      <trkpt lat="45.30357" lon="5.83321">
        <ele>1392</ele>
        <time>2018-05-06T15:24:50Z</time>
      </trkpt>
      <trkpt lat="45.30362" lon="5.83319">
        <ele>1392</ele>
        <time>2018-05-06T15:24:54Z</time>
      </trkpt>
      <trkpt lat="45.30365" lon="5.83317">
        <ele>1393</ele>
        <time>2018-05-06T15:24:56Z</time>
      </trkpt>
      <trkpt lat="45.30369" lon="5.83311">
        <ele>1393</ele>
        <time>2018-05-06T15:25:01Z</time>
      </trkpt>
      <trkpt lat="45.30375" lon="5.83305">
        <ele>1393</ele>
        <time>2018-05-06T15:25:06Z</time>
      </trkpt>
      <trkpt lat="45.30393" lon="5.83283">
        <ele>1392</ele>
        <time>2018-05-06T15:25:20Z</time>
      </trkpt>
      <trkpt lat="45.30398" lon="5.83276">
        <ele>1392</ele>
        <time>2018-05-06T15:25:33Z</time>
      </trkpt>
      <trkpt lat="45.30397" lon="5.83278">
        <ele>1392</ele>
        <time>2018-05-06T15:25:46Z</time>
      </trkpt>
      <trkpt lat="45.30403" lon="5.83276">
        <ele>1392</ele>
        <time>2018-05-06T15:26:01Z</time>
      </trkpt>
      <trkpt lat="45.30403" lon="5.83276">
        <ele>1392</ele>
        <time>2018-05-06T15:26:02Z</time>
      </trkpt>
      <trkpt lat="45.30408" lon="5.83271">
        <ele>1391</ele>
        <time>2018-05-06T15:26:12Z</time>
      </trkpt>
      <trkpt lat="45.30415" lon="5.83259">
        <ele>1389</ele>
        <time>2018-05-06T15:26:23Z</time>
      </trkpt>
      <trkpt lat="45.30416" lon="5.83254">
        <ele>1389</ele>
        <time>2018-05-06T15:26:36Z</time>
      </trkpt>
      <trkpt lat="45.30415" lon="5.83245">
        <ele>1386</ele>
        <time>2018-05-06T15:26:48Z</time>
      </trkpt>
      <trkpt lat="45.30416" lon="5.83246">
        <ele>1386</ele>
        <time>2018-05-06T15:27:03Z</time>
      </trkpt>
      <trkpt lat="45.30416" lon="5.83245">
        <ele>1386</ele>
        <time>2018-05-06T15:27:14Z</time>
      </trkpt>
      <trkpt lat="45.30419" lon="5.8324">
        <ele>1389</ele>
        <time>2018-05-06T15:27:26Z</time>
      </trkpt>
      <trkpt lat="45.30424" lon="5.83238">
        <ele>1390</ele>
        <time>2018-05-06T15:27:35Z</time>
      </trkpt>
      <trkpt lat="45.30435" lon="5.83239">
        <ele>1391</ele>
        <time>2018-05-06T15:27:46Z</time>
      </trkpt>
      <trkpt lat="45.30438" lon="5.83232">
        <ele>1391</ele>
        <time>2018-05-06T15:27:59Z</time>
      </trkpt>
      <trkpt lat="45.30441" lon="5.83231">
        <ele>1392</ele>
        <time>2018-05-06T15:28:06Z</time>
      </trkpt>
      <trkpt lat="45.30454" lon="5.83226">
        <ele>1394</ele>
        <time>2018-05-06T15:28:20Z</time>
      </trkpt>
      <trkpt lat="45.30459" lon="5.83224">
        <ele>1394</ele>
        <time>2018-05-06T15:28:24Z</time>
      </trkpt>
      <trkpt lat="45.30473" lon="5.8322">
        <ele>1397</ele>
        <time>2018-05-06T15:28:39Z</time>
      </trkpt>
      <trkpt lat="45.30484" lon="5.83211">
        <ele>1397</ele>
        <time>2018-05-06T15:28:52Z</time>
      </trkpt>
      <trkpt lat="45.30498" lon="5.83204">
        <ele>1397</ele>
        <time>2018-05-06T15:29:04Z</time>
      </trkpt>
      <trkpt lat="45.30507" lon="5.83199">
        <ele>1416</ele>
        <time>2018-05-06T15:29:18Z</time>
      </trkpt>
      <trkpt lat="45.30516" lon="5.83191">
        <ele>1415</ele>
        <time>2018-05-06T15:29:24Z</time>
      </trkpt>
      <trkpt lat="45.30521" lon="5.83184">
        <ele>1415</ele>
        <time>2018-05-06T15:29:29Z</time>
      </trkpt>
      <trkpt lat="45.3053" lon="5.83173">
        <ele>1416</ele>
        <time>2018-05-06T15:29:39Z</time>
      </trkpt>
      <trkpt lat="45.30542" lon="5.83166">
        <ele>1405</ele>
        <time>2018-05-06T15:29:53Z</time>
      </trkpt>
      <trkpt lat="45.30554" lon="5.83154">
        <ele>1408</ele>
        <time>2018-05-06T15:30:07Z</time>
      </trkpt>
      <trkpt lat="45.30557" lon="5.8315">
        <ele>1408</ele>
        <time>2018-05-06T15:30:20Z</time>
      </trkpt>
      <trkpt lat="45.30555" lon="5.83147">
        <ele>1407</ele>
        <time>2018-05-06T15:30:35Z</time>
      </trkpt>
      <trkpt lat="45.30555" lon="5.83147">
        <ele>1407</ele>
        <time>2018-05-06T15:30:52Z</time>
      </trkpt>
      <trkpt lat="45.30555" lon="5.83148">
        <ele>1407</ele>
        <time>2018-05-06T15:30:56Z</time>
      </trkpt>
      <trkpt lat="45.30562" lon="5.83146">
        <ele>1409</ele>
        <time>2018-05-06T15:31:05Z</time>
      </trkpt>
      <trkpt lat="45.30578" lon="5.83128">
        <ele>1407</ele>
        <time>2018-05-06T15:31:23Z</time>
      </trkpt>
      <trkpt lat="45.30584" lon="5.83125">
        <ele>1428</ele>
        <time>2018-05-06T15:31:32Z</time>
      </trkpt>
      <trkpt lat="45.30598" lon="5.83113">
        <ele>1428</ele>
        <time>2018-05-06T15:31:47Z</time>
      </trkpt>
      <trkpt lat="45.306" lon="5.83106">
        <ele>1426</ele>
        <time>2018-05-06T15:31:58Z</time>
      </trkpt>
      <trkpt lat="45.30606" lon="5.83093">
        <ele>1425</ele>
        <time>2018-05-06T15:32:09Z</time>
      </trkpt>
      <trkpt lat="45.30613" lon="5.83084">
        <ele>1427</ele>
        <time>2018-05-06T15:32:17Z</time>
      </trkpt>
      <trkpt lat="45.3062" lon="5.83068">
        <ele>1421</ele>
        <time>2018-05-06T15:32:28Z</time>
      </trkpt>
      <trkpt lat="45.30625" lon="5.83039">
        <ele>1421</ele>
        <time>2018-05-06T15:32:43Z</time>
      </trkpt>
      <trkpt lat="45.30627" lon="5.83032">
        <ele>1420</ele>
        <time>2018-05-06T15:32:49Z</time>
      </trkpt>
      <trkpt lat="45.30624" lon="5.83025">
        <ele>1419</ele>
        <time>2018-05-06T15:32:53Z</time>
      </trkpt>
      <trkpt lat="45.30674" lon="5.82913">
        <ele>1429</ele>
      </trkpt>
      <trkpt lat="45.30737" lon="5.82808">
        <ele>1432</ele>
      </trkpt>
      <trkpt lat="45.30764" lon="5.82724">
        <ele>1448</ele>
      </trkpt>
      <trkpt lat="45.30811" lon="5.82669">
        <ele>1456</ele>
      </trkpt>
      <trkpt lat="45.30849" lon="5.82606">
        <ele>1469</ele>
      </trkpt>
      <trkpt lat="45.30861" lon="5.82547">
        <ele>1468</ele>
      </trkpt>
      <trkpt lat="45.3086" lon="5.82475">
        <ele>1465</ele>
      </trkpt>
      <trkpt lat="45.30869" lon="5.82435">
        <ele>1465</ele>
      </trkpt>
      <trkpt lat="45.30916" lon="5.82432">
        <ele>1469</ele>
      </trkpt>
      <trkpt lat="45.30961" lon="5.8245">
        <ele>1473</ele>
      </trkpt>
      <trkpt lat="45.30977" lon="5.82418">
        <ele>1470</ele>
      </trkpt>
      <trkpt lat="45.31009" lon="5.82408">
        <ele>1463</ele>
      </trkpt>
      <trkpt lat="45.31043" lon="5.82417">
        <ele>1466</ele>
      </trkpt>
      <trkpt lat="45.31097" lon="5.82441">
        <ele>1464</ele>
      </trkpt>
      <trkpt lat="45.31113" lon="5.8244">
        <ele>1464</ele>
      </trkpt>
      <trkpt lat="45.31158" lon="5.82396">
        <ele>1458</ele>
      </trkpt>
      <trkpt lat="45.31204" lon="5.82375">
        <ele>1453</ele>
      </trkpt>
      <trkpt lat="45.31249" lon="5.82394">
        <ele>1454</ele>
      </trkpt>
      <trkpt lat="45.31297" lon="5.82396">
        <ele>1448</ele>
      </trkpt>
      <trkpt lat="45.31424" lon="5.82381">
        <ele>1435</ele>
      </trkpt>
      <trkpt lat="45.31485" lon="5.82385">
        <ele>1433</ele>
      </trkpt>
      <trkpt lat="45.31528" lon="5.8242">
        <ele>1438</ele>
      </trkpt>
      <trkpt lat="45.31556" lon="5.82473">
        <ele>1441</ele>
      </trkpt>
      <trkpt lat="45.31589" lon="5.82469">
        <ele>1437</ele>
      </trkpt>
      <trkpt lat="45.31617" lon="5.82474">
        <ele>1438</ele>
      </trkpt>
      <trkpt lat="45.31647" lon="5.82454">
        <ele>1435</ele>
      </trkpt>
      <trkpt lat="45.31708" lon="5.82424">
        <ele>1435</ele>
      </trkpt>
      <trkpt lat="45.31742" lon="5.8242">
        <ele>1430</ele>
      </trkpt>
      <trkpt lat="45.31795" lon="5.82437">
        <ele>1439</ele>
      </trkpt>
      <trkpt lat="45.31863" lon="5.82445">
        <ele>1443</ele>
      </trkpt>
      <trkpt lat="45.31887" lon="5.82395">
        <ele>1427</ele>
        <time>2018-05-06T16:06:19Z</time>
      </trkpt>
      <trkpt lat="45.31864" lon="5.82412">
        <ele>1427</ele>
        <time>2018-05-06T16:06:34Z</time>
      </trkpt>
      <trkpt lat="45.31865" lon="5.82409">
        <ele>1427</ele>
        <time>2018-05-06T16:06:40Z</time>
      </trkpt>
      <trkpt lat="45.31867" lon="5.82408">
        <ele>1426</ele>
        <time>2018-05-06T16:06:52Z</time>
      </trkpt>
      <trkpt lat="45.31871" lon="5.82404">
        <ele>1426</ele>
        <time>2018-05-06T16:07:06Z</time>
      </trkpt>
      <trkpt lat="45.3187" lon="5.82404">
        <ele>1426</ele>
        <time>2018-05-06T16:07:08Z</time>
      </trkpt>
      <trkpt lat="45.31913" lon="5.82399">
        <ele>1431</ele>
      </trkpt>
      <trkpt lat="45.3202" lon="5.82406">
        <ele>1428</ele>
      </trkpt>
      <trkpt lat="45.32061" lon="5.82394">
        <ele>1423</ele>
      </trkpt>
      <trkpt lat="45.32086" lon="5.82406">
        <ele>1422</ele>
      </trkpt>
      <trkpt lat="45.32113" lon="5.82431">
        <ele>1434</ele>
      </trkpt>
      <trkpt lat="45.32144" lon="5.82443">
        <ele>1433</ele>
      </trkpt>
      <trkpt lat="45.32166" lon="5.82443">
        <ele>1431</ele>
      </trkpt>
      <trkpt lat="45.32189" lon="5.82431">
        <ele>1424</ele>
      </trkpt>
      <trkpt lat="45.3225" lon="5.82423">
        <ele>1411</ele>
      </trkpt>
      <trkpt lat="45.32291" lon="5.82431">
        <ele>1418</ele>
      </trkpt>
      <trkpt lat="45.32329" lon="5.82431">
        <ele>1413</ele>
      </trkpt>
      <trkpt lat="45.32358" lon="5.82409">
        <ele>1400</ele>
      </trkpt>
      <trkpt lat="45.32438" lon="5.82402">
        <ele>1402</ele>
      </trkpt>
      <trkpt lat="45.32471" lon="5.82384">
        <ele>1399</ele>
      </trkpt>
      <trkpt lat="45.32511" lon="5.82376">
        <ele>1396</ele>
      </trkpt>
      <trkpt lat="45.32494" lon="5.82353">
        <ele>1394</ele>
        <time>2018-05-06T16:16:53Z</time>
      </trkpt>
      <trkpt lat="45.32496" lon="5.82354">
        <ele>1394</ele>
        <time>2018-05-06T16:16:54Z</time>
      </trkpt>
      <trkpt lat="45.3249" lon="5.82362">
        <ele>1396</ele>
        <time>2018-05-06T16:17:06Z</time>
      </trkpt>
      <trkpt lat="45.32491" lon="5.82364">
        <ele>1396</ele>
        <time>2018-05-06T16:17:25Z</time>
      </trkpt>
      <trkpt lat="45.32493" lon="5.82371">
        <ele>1397</ele>
        <time>2018-05-06T16:17:46Z</time>
      </trkpt>
      <trkpt lat="45.32487" lon="5.82361">
        <ele>1396</ele>
        <time>2018-05-06T16:18:01Z</time>
      </trkpt>
      <trkpt lat="45.32487" lon="5.8236">
        <ele>1396</ele>
        <time>2018-05-06T16:18:02Z</time>
      </trkpt>
      <trkpt lat="45.32487" lon="5.8236">
        <ele>1395</ele>
        <time>2018-05-06T16:18:03Z</time>
      </trkpt>
      <trkpt lat="45.32487" lon="5.82357">
        <ele>1395</ele>
        <time>2018-05-06T16:18:06Z</time>
      </trkpt>
      <trkpt lat="45.32473" lon="5.82346">
        <ele>1394</ele>
        <time>2018-05-06T16:18:20Z</time>
      </trkpt>
      <trkpt lat="45.32468" lon="5.82342">
        <ele>1394</ele>
        <time>2018-05-06T16:18:25Z</time>
      </trkpt>
      <trkpt lat="45.3246" lon="5.82339">
        <ele>1394</ele>
        <time>2018-05-06T16:18:36Z</time>
      </trkpt>
      <trkpt lat="45.32449" lon="5.82336">
        <ele>1394</ele>
        <time>2018-05-06T16:18:47Z</time>
      </trkpt>
      <trkpt lat="45.32441" lon="5.82336">
        <ele>1393</ele>
        <time>2018-05-06T16:18:55Z</time>
      </trkpt>
      <trkpt lat="45.3243" lon="5.82335">
        <ele>1391</ele>
        <time>2018-05-06T16:19:01Z</time>
      </trkpt>
      <trkpt lat="45.32427" lon="5.82333">
        <ele>1390</ele>
        <time>2018-05-06T16:19:03Z</time>
      </trkpt>
      <trkpt lat="45.32417" lon="5.82328">
        <ele>1385</ele>
        <time>2018-05-06T16:19:09Z</time>
      </trkpt>
      <trkpt lat="45.324" lon="5.82319">
        <ele>1382</ele>
        <time>2018-05-06T16:19:22Z</time>
      </trkpt>
      <trkpt lat="45.32393" lon="5.82315">
        <ele>1381</ele>
        <time>2018-05-06T16:19:27Z</time>
      </trkpt>
      <trkpt lat="45.32387" lon="5.82315">
        <ele>1381</ele>
        <time>2018-05-06T16:19:33Z</time>
      </trkpt>
      <trkpt lat="45.32373" lon="5.82315">
        <ele>1380</ele>
        <time>2018-05-06T16:19:43Z</time>
      </trkpt>
      <trkpt lat="45.32371" lon="5.82314">
        <ele>1380</ele>
        <time>2018-05-06T16:19:46Z</time>
      </trkpt>
      <trkpt lat="45.32366" lon="5.82313">
        <ele>1380</ele>
        <time>2018-05-06T16:19:50Z</time>
      </trkpt>
      <trkpt lat="45.32347" lon="5.82311">
        <ele>1380</ele>
        <time>2018-05-06T16:19:58Z</time>
      </trkpt>
      <trkpt lat="45.32344" lon="5.82307">
        <ele>1379</ele>
        <time>2018-05-06T16:20:03Z</time>
      </trkpt>
      <trkpt lat="45.32343" lon="5.82297">
        <ele>1379</ele>
        <time>2018-05-06T16:20:13Z</time>
      </trkpt>
      <trkpt lat="45.32342" lon="5.82292">
        <ele>1379</ele>
        <time>2018-05-06T16:20:20Z</time>
      </trkpt>
      <trkpt lat="45.32339" lon="5.82285">
        <ele>1378</ele>
        <time>2018-05-06T16:20:26Z</time>
      </trkpt>
      <trkpt lat="45.32342" lon="5.82284">
        <ele>1378</ele>
        <time>2018-05-06T16:20:37Z</time>
      </trkpt>
      <trkpt lat="45.32342" lon="5.82284">
        <ele>1378</ele>
        <time>2018-05-06T16:20:39Z</time>
      </trkpt>
      <trkpt lat="45.32338" lon="5.82274">
        <ele>1377</ele>
        <time>2018-05-06T16:20:50Z</time>
      </trkpt>
      <trkpt lat="45.32331" lon="5.82272">
        <ele>1375</ele>
        <time>2018-05-06T16:21:02Z</time>
      </trkpt>
      <trkpt lat="45.32331" lon="5.82273">
        <ele>1375</ele>
        <time>2018-05-06T16:21:12Z</time>
      </trkpt>
      <trkpt lat="45.32334" lon="5.82278">
        <ele>1377</ele>
        <time>2018-05-06T16:21:28Z</time>
      </trkpt>
      <trkpt lat="45.32325" lon="5.82271">
        <ele>1375</ele>
        <time>2018-05-06T16:21:38Z</time>
      </trkpt>
      <trkpt lat="45.32318" lon="5.82263">
        <ele>1375</ele>
        <time>2018-05-06T16:21:46Z</time>
      </trkpt>
    </trkseg>
  </trk>
</gpx>